<?xml version="1.0" encoding="UTF-8" standalone="no" ?><gpx xmlns="http://www.topografix.com/GPX/1/1" xmlns:gpxx="http://www.garmin.com/xmlschemas/GpxExtensions/v3" xmlns:wptx1="http://www.garmin.com/xmlschemas/WaypointExtension/v1" xmlns:gpxtpx="http://www.garmin.com/xmlschemas/TrackPointExtension/v1" creator="Oregon 450" version="1.1" xmlns:xsi="http://www.w3.org/2001/XMLSchema-instance" xsi:schemaLocation="http://www.topografix.com/GPX/1/1 http://www.topografix.com/GPX/1/1/gpx.xsd http://www.garmin.com/xmlschemas/GpxExtensions/v3 http://www8.garmin.com/xmlschemas/GpxExtensionsv3.xsd http://www.garmin.com/xmlschemas/WaypointExtension/v1 http://www8.garmin.com/xmlschemas/WaypointExtensionv1.xsd http://www.garmin.com/xmlschemas/TrackPointExtension/v1 http://www.garmin.com/xmlschemas/TrackPointExtensionv1.xsd"><metadata><link href="http://www.garmin.com"><text>Garmin International</text></link><time>2013-07-21T14:25:07Z</time></metadata><trk><name>21-ČRC-13 16:25:05</name><extensions><gpxx:TrackExtension><gpxx:DisplayColor>DarkRed</gpxx:DisplayColor></gpxx:TrackExtension></extensions><trkseg><trkpt lat="46.4824760333" lon="12.0534054190"><ele>2242.41</ele><time>2013-07-21T10:55:49Z</time></trkpt><trkpt lat="46.4824534021" lon="12.0534294751"><ele>2239.05</ele><time>2013-07-21T10:56:01Z</time></trkpt><trkpt lat="46.4824500494" lon="12.0534371864"><ele>2241.93</ele><time>2013-07-21T10:56:06Z</time></trkpt><trkpt lat="46.4824545756" lon="12.0534398686"><ele>2240.49</ele><time>2013-07-21T10:56:14Z</time></trkpt><trkpt lat="46.4824461937" lon="12.0534334145"><ele>2240.97</ele><time>2013-07-21T10:56:25Z</time></trkpt><trkpt lat="46.4824461937" lon="12.0534334145"><ele>2241.45</ele><time>2013-07-21T10:56:37Z</time></trkpt><trkpt lat="46.4824461937" lon="12.0534334145"><ele>2241.45</ele><time>2013-07-21T10:56:52Z</time></trkpt><trkpt lat="46.4824462775" lon="12.0534357615"><ele>2240.97</ele><time>2013-07-21T10:57:06Z</time></trkpt><trkpt lat="46.4824355487" lon="12.0534400363"><ele>2240.49</ele><time>2013-07-21T10:57:15Z</time></trkpt><trkpt lat="46.4824417513" lon="12.0534507651"><ele>2240.97</ele><time>2013-07-21T10:57:28Z</time></trkpt><trkpt lat="46.4824883547" lon="12.0534811076"><ele>2240.97</ele><time>2013-07-21T10:57:36Z</time></trkpt><trkpt lat="46.4825343713" lon="12.0535566285"><ele>2241.45</ele><time>2013-07-21T10:57:46Z</time></trkpt><trkpt lat="46.4825466927" lon="12.0536234323"><ele>2240.97</ele><time>2013-07-21T10:57:53Z</time></trkpt><trkpt lat="46.4825684857" lon="12.0536482427"><ele>2240.97</ele><time>2013-07-21T10:57:56Z</time></trkpt><trkpt lat="46.4826914482" lon="12.0536536910"><ele>2240.97</ele><time>2013-07-21T10:58:08Z</time></trkpt><trkpt lat="46.4828539733" lon="12.0536348317"><ele>2240.49</ele><time>2013-07-21T10:58:19Z</time></trkpt><trkpt lat="46.4829794504" lon="12.0536189899"><ele>2240.01</ele><time>2013-07-21T10:58:31Z</time></trkpt><trkpt lat="46.4831315819" lon="12.0535923354"><ele>2240.97</ele><time>2013-07-21T10:58:45Z</time></trkpt><trkpt lat="46.4832258783" lon="12.0536055788"><ele>2240.97</ele><time>2013-07-21T10:58:54Z</time></trkpt><trkpt lat="46.4832721464" lon="12.0536127873"><ele>2241.45</ele><time>2013-07-21T10:58:58Z</time></trkpt><trkpt lat="46.4832942747" lon="12.0536186546"><ele>2241.45</ele><time>2013-07-21T10:59:00Z</time></trkpt><trkpt lat="46.4834428858" lon="12.0536364242"><ele>2241.45</ele><time>2013-07-21T10:59:12Z</time></trkpt><trkpt lat="46.4835908264" lon="12.0536127873"><ele>2241.45</ele><time>2013-07-21T10:59:24Z</time></trkpt><trkpt lat="46.4836738072" lon="12.0536043216"><ele>2241.45</ele><time>2013-07-21T10:59:30Z</time></trkpt><trkpt lat="46.4838067442" lon="12.0535883959"><ele>2242.41</ele><time>2013-07-21T10:59:41Z</time></trkpt><trkpt lat="46.4839547686" lon="12.0535590593"><ele>2243.37</ele><time>2013-07-21T10:59:53Z</time></trkpt><trkpt lat="46.4840784017" lon="12.0535408705"><ele>2244.82</ele><time>2013-07-21T11:00:03Z</time></trkpt><trkpt lat="46.4841646515" lon="12.0535381045"><ele>2246.74</ele><time>2013-07-21T11:00:12Z</time></trkpt><trkpt lat="46.4842743706" lon="12.0535452291"><ele>2248.18</ele><time>2013-07-21T11:00:23Z</time></trkpt><trkpt lat="46.4844052959" lon="12.0535333268"><ele>2248.18</ele><time>2013-07-21T11:00:35Z</time></trkpt><trkpt lat="46.4844640531" lon="12.0535356738"><ele>2247.70</ele><time>2013-07-21T11:00:40Z</time></trkpt><trkpt lat="46.4846150111" lon="12.0534819458"><ele>2247.70</ele><time>2013-07-21T11:00:53Z</time></trkpt><trkpt lat="46.4846599381" lon="12.0534668583"><ele>2247.70</ele><time>2013-07-21T11:00:57Z</time></trkpt><trkpt lat="46.4847819787" lon="12.0534433052"><ele>2248.18</ele><time>2013-07-21T11:01:08Z</time></trkpt><trkpt lat="46.4849088807" lon="12.0534076821"><ele>2249.14</ele><time>2013-07-21T11:01:19Z</time></trkpt><trkpt lat="46.4850258920" lon="12.0533731487"><ele>2249.62</ele><time>2013-07-21T11:01:29Z</time></trkpt><trkpt lat="46.4850678016" lon="12.0533599891"><ele>2250.58</ele><time>2013-07-21T11:01:33Z</time></trkpt><trkpt lat="46.4851343539" lon="12.0533449855"><ele>2251.54</ele><time>2013-07-21T11:01:40Z</time></trkpt><trkpt lat="46.4852054324" lon="12.0533577260"><ele>2252.03</ele><time>2013-07-21T11:01:50Z</time></trkpt><trkpt lat="46.4852750860" lon="12.0533713885"><ele>2252.51</ele><time>2013-07-21T11:01:56Z</time></trkpt><trkpt lat="46.4853999764" lon="12.0533431415"><ele>2252.03</ele><time>2013-07-21T11:02:07Z</time></trkpt><trkpt lat="46.4855252020" lon="12.0532835461"><ele>2252.51</ele><time>2013-07-21T11:02:19Z</time></trkpt><trkpt lat="46.4856468234" lon="12.0532449894"><ele>2252.03</ele><time>2013-07-21T11:02:28Z</time></trkpt><trkpt lat="46.4857927524" lon="12.0532570593"><ele>2252.03</ele><time>2013-07-21T11:02:38Z</time></trkpt><trkpt lat="46.4859683532" lon="12.0533036627"><ele>2251.54</ele><time>2013-07-21T11:02:51Z</time></trkpt><trkpt lat="46.4861127734" lon="12.0533405431"><ele>2252.51</ele><time>2013-07-21T11:03:02Z</time></trkpt><trkpt lat="46.4861471392" lon="12.0533687063"><ele>2252.51</ele><time>2013-07-21T11:03:05Z</time></trkpt><trkpt lat="46.4861975983" lon="12.0533793513"><ele>2252.03</ele><time>2013-07-21T11:03:09Z</time></trkpt><trkpt lat="46.4862774778" lon="12.0533811115"><ele>2251.06</ele><time>2013-07-21T11:03:15Z</time></trkpt><trkpt lat="46.4863950759" lon="12.0535064209"><ele>2252.51</ele><time>2013-07-21T11:03:26Z</time></trkpt><trkpt lat="46.4865165297" lon="12.0535646752"><ele>2252.03</ele><time>2013-07-21T11:03:36Z</time></trkpt><trkpt lat="46.4865405019" lon="12.0535735600"><ele>2252.03</ele><time>2013-07-21T11:03:38Z</time></trkpt><trkpt lat="46.4866974112" lon="12.0536077581"><ele>2251.54</ele><time>2013-07-21T11:03:50Z</time></trkpt><trkpt lat="46.4867207967" lon="12.0536242705"><ele>2252.03</ele><time>2013-07-21T11:03:52Z</time></trkpt><trkpt lat="46.4868150931" lon="12.0537559502"><ele>2251.54</ele><time>2013-07-21T11:04:03Z</time></trkpt><trkpt lat="46.4869618602" lon="12.0538478158"><ele>2251.06</ele><time>2013-07-21T11:04:15Z</time></trkpt><trkpt lat="46.4869867545" lon="12.0538614783"><ele>2250.58</ele><time>2013-07-21T11:04:26Z</time></trkpt><trkpt lat="46.4870506246" lon="12.0538855344"><ele>2249.62</ele><time>2013-07-21T11:04:34Z</time></trkpt><trkpt lat="46.4871749282" lon="12.0539027173"><ele>2248.18</ele><time>2013-07-21T11:04:45Z</time></trkpt><trkpt lat="46.4872077014" lon="12.0538826846"><ele>2247.70</ele><time>2013-07-21T11:04:51Z</time></trkpt><trkpt lat="46.4872589987" lon="12.0538934134"><ele>2246.26</ele><time>2013-07-21T11:04:56Z</time></trkpt><trkpt lat="46.4873224497" lon="12.0539147034"><ele>2245.30</ele><time>2013-07-21T11:05:01Z</time></trkpt><trkpt lat="46.4874309115" lon="12.0539510809"><ele>2245.30</ele><time>2013-07-21T11:05:12Z</time></trkpt><trkpt lat="46.4875172451" lon="12.0538375899"><ele>2244.82</ele><time>2013-07-21T11:05:22Z</time></trkpt><trkpt lat="46.4875486773" lon="12.0538252685"><ele>2244.33</ele><time>2013-07-21T11:05:25Z</time></trkpt><trkpt lat="46.4876616653" lon="12.0538064931"><ele>2243.85</ele><time>2013-07-21T11:05:35Z</time></trkpt><trkpt lat="46.4877577219" lon="12.0538230054"><ele>2243.37</ele><time>2013-07-21T11:05:42Z</time></trkpt><trkpt lat="46.4879033994" lon="12.0537660085"><ele>2242.41</ele><time>2013-07-21T11:05:55Z</time></trkpt><trkpt lat="46.4879539423" lon="12.0537412819"><ele>2242.89</ele><time>2013-07-21T11:06:01Z</time></trkpt><trkpt lat="46.4880467299" lon="12.0537765697"><ele>2244.82</ele><time>2013-07-21T11:06:10Z</time></trkpt><trkpt lat="46.4880777430" lon="12.0538260229"><ele>2245.30</ele><time>2013-07-21T11:06:14Z</time></trkpt><trkpt lat="46.4881030563" lon="12.0538704470"><ele>2244.33</ele><time>2013-07-21T11:06:17Z</time></trkpt><trkpt lat="46.4881335665" lon="12.0539056510"><ele>2244.33</ele><time>2013-07-21T11:06:20Z</time></trkpt><trkpt lat="46.4881551918" lon="12.0539144520"><ele>2244.82</ele><time>2013-07-21T11:06:22Z</time></trkpt><trkpt lat="46.4882424474" lon="12.0540312119"><ele>2243.85</ele><time>2013-07-21T11:06:32Z</time></trkpt><trkpt lat="46.4883120172" lon="12.0541446190"><ele>2242.89</ele><time>2013-07-21T11:06:42Z</time></trkpt><trkpt lat="46.4883119334" lon="12.0543251652"><ele>2240.97</ele><time>2013-07-21T11:06:54Z</time></trkpt><trkpt lat="46.4883001987" lon="12.0544265024"><ele>2239.53</ele><time>2013-07-21T11:07:02Z</time></trkpt><trkpt lat="46.4883246738" lon="12.0544943120"><ele>2239.53</ele><time>2013-07-21T11:07:06Z</time></trkpt><trkpt lat="46.4883385040" lon="12.0545290131"><ele>2240.01</ele><time>2013-07-21T11:07:08Z</time></trkpt><trkpt lat="46.4883436169" lon="12.0545643847"><ele>2239.53</ele><time>2013-07-21T11:07:10Z</time></trkpt><trkpt lat="46.4884030446" lon="12.0547031052"><ele>2239.53</ele><time>2013-07-21T11:07:20Z</time></trkpt><trkpt lat="46.4884986822" lon="12.0547844935"><ele>2238.57</ele><time>2013-07-21T11:07:29Z</time></trkpt><trkpt lat="46.4885218162" lon="12.0547906123"><ele>2238.57</ele><time>2013-07-21T11:07:31Z</time></trkpt><trkpt lat="46.4885829203" lon="12.0547899418"><ele>2236.16</ele><time>2013-07-21T11:07:40Z</time></trkpt><trkpt lat="46.4885921404" lon="12.0547911152"><ele>2235.68</ele><time>2013-07-21T11:07:41Z</time></trkpt><trkpt lat="46.4886524901" lon="12.0548155066"><ele>2234.24</ele><time>2013-07-21T11:07:50Z</time></trkpt><trkpt lat="46.4886949025" lon="12.0548005030"><ele>2233.28</ele><time>2013-07-21T11:07:55Z</time></trkpt><trkpt lat="46.4887272567" lon="12.0548225474"><ele>2231.84</ele><time>2013-07-21T11:08:01Z</time></trkpt><trkpt lat="46.4887647238" lon="12.0548960567"><ele>2230.40</ele><time>2013-07-21T11:08:09Z</time></trkpt><trkpt lat="46.4887962397" lon="12.0549358707"><ele>2229.92</ele><time>2013-07-21T11:08:13Z</time></trkpt><trkpt lat="46.4888533205" lon="12.0550223719"><ele>2230.40</ele><time>2013-07-21T11:08:23Z</time></trkpt><trkpt lat="46.4889280032" lon="12.0550601743"><ele>2228.95</ele><time>2013-07-21T11:08:33Z</time></trkpt><trkpt lat="46.4889462758" lon="12.0550704002"><ele>2228.47</ele><time>2013-07-21T11:08:35Z</time></trkpt><trkpt lat="46.4889694098" lon="12.0550727472"><ele>2227.51</ele><time>2013-07-21T11:08:38Z</time></trkpt><trkpt lat="46.4890571684" lon="12.0550799556"><ele>2225.59</ele><time>2013-07-21T11:08:46Z</time></trkpt><trkpt lat="46.4891105611" lon="12.0550771896"><ele>2224.63</ele><time>2013-07-21T11:08:52Z</time></trkpt><trkpt lat="46.4891676418" lon="12.0550786983"><ele>2223.67</ele><time>2013-07-21T11:08:57Z</time></trkpt><trkpt lat="46.4892238006" lon="12.0551562309"><ele>2223.67</ele><time>2013-07-21T11:09:06Z</time></trkpt><trkpt lat="46.4892814681" lon="12.0551879983"><ele>2222.22</ele><time>2013-07-21T11:09:11Z</time></trkpt><trkpt lat="46.4893526305" lon="12.0552238729"><ele>2221.74</ele><time>2013-07-21T11:09:16Z</time></trkpt><trkpt lat="46.4894605894" lon="12.0553299040"><ele>2221.74</ele><time>2013-07-21T11:09:26Z</time></trkpt><trkpt lat="46.4895069413" lon="12.0553708076"><ele>2222.22</ele><time>2013-07-21T11:09:30Z</time></trkpt><trkpt lat="46.4895528741" lon="12.0554309059"><ele>2222.71</ele><time>2013-07-21T11:09:35Z</time></trkpt><trkpt lat="46.4895884972" lon="12.0554897469"><ele>2223.67</ele><time>2013-07-21T11:09:41Z</time></trkpt><trkpt lat="46.4896101225" lon="12.0555101987"><ele>2224.15</ele><time>2013-07-21T11:09:45Z</time></trkpt><trkpt lat="46.4896971267" lon="12.0554930996"><ele>2223.19</ele><time>2013-07-21T11:09:54Z</time></trkpt><trkpt lat="46.4897410478" lon="12.0555622503"><ele>2223.67</ele><time>2013-07-21T11:10:02Z</time></trkpt><trkpt lat="46.4897834603" lon="12.0555531140"><ele>2224.15</ele><time>2013-07-21T11:10:12Z</time></trkpt><trkpt lat="46.4898113720" lon="12.0555454865"><ele>2224.15</ele><time>2013-07-21T11:10:23Z</time></trkpt><trkpt lat="46.4898469951" lon="12.0555598196"><ele>2224.15</ele><time>2013-07-21T11:10:26Z</time></trkpt><trkpt lat="46.4898749907" lon="12.0555685367"><ele>2223.67</ele><time>2013-07-21T11:10:28Z</time></trkpt><trkpt lat="46.4899180736" lon="12.0555638429"><ele>2224.15</ele><time>2013-07-21T11:10:31Z</time></trkpt><trkpt lat="46.4900209196" lon="12.0556060877"><ele>2224.15</ele><time>2013-07-21T11:10:41Z</time></trkpt><trkpt lat="46.4900620747" lon="12.0556055009"><ele>2224.15</ele><time>2013-07-21T11:10:51Z</time></trkpt><trkpt lat="46.4901044033" lon="12.0556151401"><ele>2224.15</ele><time>2013-07-21T11:10:56Z</time></trkpt><trkpt lat="46.4901440497" lon="12.0556017291"><ele>2223.67</ele><time>2013-07-21T11:11:00Z</time></trkpt><trkpt lat="46.4902236778" lon="12.0555760805"><ele>2221.74</ele><time>2013-07-21T11:11:11Z</time></trkpt><trkpt lat="46.4902738854" lon="12.0555470791"><ele>2220.30</ele><time>2013-07-21T11:11:21Z</time></trkpt><trkpt lat="46.4902986959" lon="12.0555469114"><ele>2219.34</ele><time>2013-07-21T11:11:26Z</time></trkpt><trkpt lat="46.4903126936" lon="12.0555341709"><ele>2218.38</ele><time>2013-07-21T11:11:34Z</time></trkpt><trkpt lat="46.4903268591" lon="12.0555383619"><ele>2217.42</ele><time>2013-07-21T11:11:37Z</time></trkpt><trkpt lat="46.4903717022" lon="12.0555096958"><ele>2216.46</ele><time>2013-07-21T11:11:46Z</time></trkpt><trkpt lat="46.4904502407" lon="12.0554206800"><ele>2217.42</ele><time>2013-07-21T11:11:56Z</time></trkpt><trkpt lat="46.4905369934" lon="12.0554577280"><ele>2216.46</ele><time>2013-07-21T11:12:06Z</time></trkpt><trkpt lat="46.4905799925" lon="12.0554691274"><ele>2215.50</ele><time>2013-07-21T11:12:12Z</time></trkpt><trkpt lat="46.4906488918" lon="12.0554701332"><ele>2215.01</ele><time>2013-07-21T11:12:18Z</time></trkpt><trkpt lat="46.4906753786" lon="12.0554785989"><ele>2215.01</ele><time>2013-07-21T11:12:21Z</time></trkpt><trkpt lat="46.4907197189" lon="12.0555039123"><ele>2214.05</ele><time>2013-07-21T11:12:27Z</time></trkpt><trkpt lat="46.4907979220" lon="12.0555816125"><ele>2214.05</ele><time>2013-07-21T11:12:38Z</time></trkpt><trkpt lat="46.4908451959" lon="12.0556638390"><ele>2215.50</ele><time>2013-07-21T11:12:47Z</time></trkpt><trkpt lat="46.4908757899" lon="12.0556918345"><ele>2215.50</ele><time>2013-07-21T11:12:50Z</time></trkpt><trkpt lat="46.4909114130" lon="12.0557513461"><ele>2215.50</ele><time>2013-07-21T11:12:55Z</time></trkpt><trkpt lat="46.4909648895" lon="12.0558345784"><ele>2214.53</ele><time>2013-07-21T11:13:04Z</time></trkpt><trkpt lat="46.4909754507" lon="12.0558584668"><ele>2214.05</ele><time>2013-07-21T11:13:06Z</time></trkpt><trkpt lat="46.4909816533" lon="12.0558654238"><ele>2213.57</ele><time>2013-07-21T11:13:07Z</time></trkpt><trkpt lat="46.4910228923" lon="12.0559306350"><ele>2211.65</ele><time>2013-07-21T11:13:14Z</time></trkpt><trkpt lat="46.4910434280" lon="12.0559510030"><ele>2212.13</ele><time>2013-07-21T11:13:16Z</time></trkpt><trkpt lat="46.4911319409" lon="12.0560344867"><ele>2209.73</ele><time>2013-07-21T11:13:26Z</time></trkpt><trkpt lat="46.4911629539" lon="12.0560433716"><ele>2209.25</ele><time>2013-07-21T11:13:29Z</time></trkpt><trkpt lat="46.4911909495" lon="12.0560515020"><ele>2209.25</ele><time>2013-07-21T11:13:34Z</time></trkpt><trkpt lat="46.4912476111" lon="12.0560230874"><ele>2208.29</ele><time>2013-07-21T11:13:41Z</time></trkpt><trkpt lat="46.4912823960" lon="12.0560170524"><ele>2207.81</ele><time>2013-07-21T11:13:44Z</time></trkpt><trkpt lat="46.4913160075" lon="12.0560020488"><ele>2207.81</ele><time>2013-07-21T11:13:47Z</time></trkpt><trkpt lat="46.4913839009" lon="12.0559055731"><ele>2207.81</ele><time>2013-07-21T11:13:57Z</time></trkpt><trkpt lat="46.4913927857" lon="12.0558998734"><ele>2207.81</ele><time>2013-07-21T11:13:58Z</time></trkpt><trkpt lat="46.4914284088" lon="12.0558578800"><ele>2206.84</ele><time>2013-07-21T11:14:02Z</time></trkpt><trkpt lat="46.4914597571" lon="12.0558338240"><ele>2205.88</ele><time>2013-07-21T11:14:09Z</time></trkpt><trkpt lat="46.4914865792" lon="12.0557857119"><ele>2205.88</ele><time>2013-07-21T11:14:13Z</time></trkpt><trkpt lat="46.4915351104" lon="12.0557253622"><ele>2205.40</ele><time>2013-07-21T11:14:20Z</time></trkpt><trkpt lat="46.4915790316" lon="12.0557096042"><ele>2204.44</ele><time>2013-07-21T11:14:24Z</time></trkpt><trkpt lat="46.4916639403" lon="12.0557642542"><ele>2204.44</ele><time>2013-07-21T11:14:35Z</time></trkpt><trkpt lat="46.4917036705" lon="12.0558301359"><ele>2204.92</ele><time>2013-07-21T11:14:42Z</time></trkpt><trkpt lat="46.4917398803" lon="12.0559312217"><ele>2204.44</ele><time>2013-07-21T11:14:49Z</time></trkpt><trkpt lat="46.4918152336" lon="12.0560328942"><ele>2204.92</ele><time>2013-07-21T11:15:00Z</time></trkpt><trkpt lat="46.4918313269" lon="12.0560711157"><ele>2203.96</ele><time>2013-07-21T11:15:04Z</time></trkpt><trkpt lat="46.4918680396" lon="12.0561482292"><ele>2203.96</ele><time>2013-07-21T11:15:10Z</time></trkpt><trkpt lat="46.4918788522" lon="12.0561862830"><ele>2203.00</ele><time>2013-07-21T11:15:12Z</time></trkpt><trkpt lat="46.4919329993" lon="12.0562847704"><ele>2202.52</ele><time>2013-07-21T11:15:18Z</time></trkpt><trkpt lat="46.4919998031" lon="12.0563905500"><ele>2203.00</ele><time>2013-07-21T11:15:26Z</time></trkpt><trkpt lat="46.4920109510" lon="12.0564853493"><ele>2201.56</ele><time>2013-07-21T11:15:34Z</time></trkpt><trkpt lat="46.4920214284" lon="12.0565799810"><ele>2199.63</ele><time>2013-07-21T11:15:41Z</time></trkpt><trkpt lat="46.4921157248" lon="12.0566272549"><ele>2201.56</ele><time>2013-07-21T11:15:52Z</time></trkpt><trkpt lat="46.4921624959" lon="12.0566468686"><ele>2202.52</ele><time>2013-07-21T11:15:58Z</time></trkpt><trkpt lat="46.4922432136" lon="12.0566865988"><ele>2203.00</ele><time>2013-07-21T11:16:08Z</time></trkpt><trkpt lat="46.4923083410" lon="12.0567270834"><ele>2203.48</ele><time>2013-07-21T11:16:17Z</time></trkpt><trkpt lat="46.4923916571" lon="12.0567580126"><ele>2203.96</ele><time>2013-07-21T11:16:26Z</time></trkpt><trkpt lat="46.4924308006" lon="12.0567761175"><ele>2203.48</ele><time>2013-07-21T11:16:33Z</time></trkpt><trkpt lat="46.4924534317" lon="12.0568005927"><ele>2203.48</ele><time>2013-07-21T11:16:36Z</time></trkpt><trkpt lat="46.4924722910" lon="12.0568413287"><ele>2203.00</ele><time>2013-07-21T11:16:39Z</time></trkpt><trkpt lat="46.4925008733" lon="12.0569049474"><ele>2202.52</ele><time>2013-07-21T11:16:43Z</time></trkpt><trkpt lat="46.4925473090" lon="12.0570058655"><ele>2202.52</ele><time>2013-07-21T11:16:50Z</time></trkpt><trkpt lat="46.4926139452" lon="12.0571119804"><ele>2204.44</ele><time>2013-07-21T11:17:02Z</time></trkpt><trkpt lat="46.4926547650" lon="12.0571397245"><ele>2204.92</ele><time>2013-07-21T11:17:09Z</time></trkpt><trkpt lat="46.4927110914" lon="12.0571475197"><ele>2205.40</ele><time>2013-07-21T11:17:17Z</time></trkpt><trkpt lat="46.4927582815" lon="12.0571424905"><ele>2204.44</ele><time>2013-07-21T11:17:22Z</time></trkpt><trkpt lat="46.4928925596" lon="12.0571362041"><ele>2203.96</ele><time>2013-07-21T11:17:34Z</time></trkpt><trkpt lat="46.4929496404" lon="12.0571300853"><ele>2203.48</ele><time>2013-07-21T11:17:42Z</time></trkpt><trkpt lat="46.4930086490" lon="12.0571310073"><ele>2203.96</ele><time>2013-07-21T11:17:46Z</time></trkpt><trkpt lat="46.4930850081" lon="12.0570953842"><ele>2205.40</ele><time>2013-07-21T11:17:55Z</time></trkpt><trkpt lat="46.4931598585" lon="12.0570653770"><ele>2205.88</ele><time>2013-07-21T11:18:03Z</time></trkpt><trkpt lat="46.4932254888" lon="12.0570437517"><ele>2205.88</ele><time>2013-07-21T11:18:08Z</time></trkpt><trkpt lat="46.4932576753" lon="12.0570227131"><ele>2206.36</ele><time>2013-07-21T11:18:11Z</time></trkpt><trkpt lat="46.4932947233" lon="12.0570102241"><ele>2206.84</ele><time>2013-07-21T11:18:15Z</time></trkpt><trkpt lat="46.4933585096" lon="12.0569944661"><ele>2209.25</ele><time>2013-07-21T11:18:24Z</time></trkpt><trkpt lat="46.4933776204" lon="12.0569958910"><ele>2209.25</ele><time>2013-07-21T11:18:26Z</time></trkpt><trkpt lat="46.4934564941" lon="12.0569715835"><ele>2210.21</ele><time>2013-07-21T11:18:35Z</time></trkpt><trkpt lat="46.4934839867" lon="12.0569720026"><ele>2210.21</ele><time>2013-07-21T11:18:38Z</time></trkpt><trkpt lat="46.4935231302" lon="12.0569763612"><ele>2210.21</ele><time>2013-07-21T11:18:42Z</time></trkpt><trkpt lat="46.4935414866" lon="12.0569834858"><ele>2210.21</ele><time>2013-07-21T11:18:44Z</time></trkpt><trkpt lat="46.4935674705" lon="12.0569873415"><ele>2210.69</ele><time>2013-07-21T11:18:47Z</time></trkpt><trkpt lat="46.4935853239" lon="12.0569948852"><ele>2211.17</ele><time>2013-07-21T11:18:49Z</time></trkpt><trkpt lat="46.4936109725" lon="12.0569986571"><ele>2210.69</ele><time>2013-07-21T11:18:51Z</time></trkpt><trkpt lat="46.4936915226" lon="12.0569880959"><ele>2212.13</ele><time>2013-07-21T11:18:59Z</time></trkpt><trkpt lat="46.4937362820" lon="12.0569786243"><ele>2212.13</ele><time>2013-07-21T11:19:04Z</time></trkpt><trkpt lat="46.4937812090" lon="12.0569864195"><ele>2212.13</ele><time>2013-07-21T11:19:08Z</time></trkpt><trkpt lat="46.4938531257" lon="12.0569639560"><ele>2213.09</ele><time>2013-07-21T11:19:15Z</time></trkpt><trkpt lat="46.4939049259" lon="12.0569642074"><ele>2213.57</ele><time>2013-07-21T11:19:25Z</time></trkpt><trkpt lat="46.4939080272" lon="12.0569649618"><ele>2214.05</ele><time>2013-07-21T11:19:35Z</time></trkpt><trkpt lat="46.4939080272" lon="12.0569649618"><ele>2213.57</ele><time>2013-07-21T11:19:53Z</time></trkpt><trkpt lat="46.4939077757" lon="12.0569667220"><ele>2214.05</ele><time>2013-07-21T11:20:16Z</time></trkpt><trkpt lat="46.4939101227" lon="12.0569541492"><ele>2213.57</ele><time>2013-07-21T11:20:34Z</time></trkpt><trkpt lat="46.4939122181" lon="12.0569493715"><ele>2214.05</ele><time>2013-07-21T11:20:50Z</time></trkpt><trkpt lat="46.4939122181" lon="12.0569493715"><ele>2213.57</ele><time>2013-07-21T11:21:12Z</time></trkpt><trkpt lat="46.4939214382" lon="12.0569205377"><ele>2213.09</ele><time>2013-07-21T11:21:27Z</time></trkpt><trkpt lat="46.4939207677" lon="12.0569049474"><ele>2214.05</ele><time>2013-07-21T11:21:42Z</time></trkpt><trkpt lat="46.4939299040" lon="12.0568970684"><ele>2213.57</ele><time>2013-07-21T11:21:55Z</time></trkpt><trkpt lat="46.4939299040" lon="12.0568970684"><ele>2214.05</ele><time>2013-07-21T11:22:11Z</time></trkpt><trkpt lat="46.4939319994" lon="12.0568973199"><ele>2214.05</ele><time>2013-07-21T11:22:26Z</time></trkpt><trkpt lat="46.4939319994" lon="12.0568973199"><ele>2213.57</ele><time>2013-07-21T11:22:46Z</time></trkpt><trkpt lat="46.4939367771" lon="12.0569033548"><ele>2213.57</ele><time>2013-07-21T11:23:01Z</time></trkpt><trkpt lat="46.4939402137" lon="12.0568927098"><ele>2213.09</ele><time>2013-07-21T11:23:13Z</time></trkpt><trkpt lat="46.4939428959" lon="12.0568944700"><ele>2213.57</ele><time>2013-07-21T11:23:34Z</time></trkpt><trkpt lat="46.4939428959" lon="12.0568944700"><ele>2214.05</ele><time>2013-07-21T11:23:51Z</time></trkpt><trkpt lat="46.4939428959" lon="12.0568944700"><ele>2213.57</ele><time>2013-07-21T11:24:12Z</time></trkpt><trkpt lat="46.4939408842" lon="12.0568876807"><ele>2213.57</ele><time>2013-07-21T11:24:34Z</time></trkpt><trkpt lat="46.4939558040" lon="12.0568583440"><ele>2213.57</ele><time>2013-07-21T11:24:51Z</time></trkpt><trkpt lat="46.4939460810" lon="12.0568017662"><ele>2215.01</ele><time>2013-07-21T11:25:00Z</time></trkpt><trkpt lat="46.4939447399" lon="12.0567488763"><ele>2216.46</ele><time>2013-07-21T11:25:08Z</time></trkpt><trkpt lat="46.4939237013" lon="12.0567130018"><ele>2217.42</ele><time>2013-07-21T11:25:17Z</time></trkpt><trkpt lat="46.4938927721" lon="12.0566926338"><ele>2218.86</ele><time>2013-07-21T11:25:27Z</time></trkpt><trkpt lat="46.4938775171" lon="12.0566277578"><ele>2220.78</ele><time>2013-07-21T11:25:37Z</time></trkpt><trkpt lat="46.4938593283" lon="12.0565842558"><ele>2222.71</ele><time>2013-07-21T11:25:47Z</time></trkpt><trkpt lat="46.4938426483" lon="12.0565578528"><ele>2224.15</ele><time>2013-07-21T11:25:57Z</time></trkpt><trkpt lat="46.4938198496" lon="12.0564789791"><ele>2226.07</ele><time>2013-07-21T11:26:08Z</time></trkpt><trkpt lat="46.4937935304" lon="12.0564417634"><ele>2227.51</ele><time>2013-07-21T11:26:18Z</time></trkpt><trkpt lat="46.4937499445" lon="12.0564007759"><ele>2228.95</ele><time>2013-07-21T11:26:28Z</time></trkpt><trkpt lat="46.4937239606" lon="12.0564016979"><ele>2230.40</ele><time>2013-07-21T11:26:36Z</time></trkpt><trkpt lat="46.4936840627" lon="12.0563930646"><ele>2231.36</ele><time>2013-07-21T11:26:46Z</time></trkpt><trkpt lat="46.4936288260" lon="12.0563758817"><ele>2233.28</ele><time>2013-07-21T11:26:56Z</time></trkpt><trkpt lat="46.4935881738" lon="12.0563123468"><ele>2233.76</ele><time>2013-07-21T11:27:05Z</time></trkpt><trkpt lat="46.4935783669" lon="12.0562825073"><ele>2235.20</ele><time>2013-07-21T11:27:13Z</time></trkpt><trkpt lat="46.4935310930" lon="12.0562426094"><ele>2236.64</ele><time>2013-07-21T11:27:22Z</time></trkpt><trkpt lat="46.4934804663" lon="12.0562282763"><ele>2237.13</ele><time>2013-07-21T11:27:30Z</time></trkpt><trkpt lat="46.4933996648" lon="12.0561885461"><ele>2238.57</ele><time>2013-07-21T11:27:39Z</time></trkpt><trkpt lat="46.4933764469" lon="12.0561823435"><ele>2239.05</ele><time>2013-07-21T11:27:42Z</time></trkpt><trkpt lat="46.4933238085" lon="12.0561589580"><ele>2240.01</ele><time>2013-07-21T11:27:50Z</time></trkpt><trkpt lat="46.4932545740" lon="12.0561492350"><ele>2241.93</ele><time>2013-07-21T11:28:01Z</time></trkpt><trkpt lat="46.4932198729" lon="12.0560853649"><ele>2242.89</ele><time>2013-07-21T11:28:09Z</time></trkpt><trkpt lat="46.4932442643" lon="12.0560527593"><ele>2243.85</ele><time>2013-07-21T11:28:20Z</time></trkpt><trkpt lat="46.4932518918" lon="12.0560427010"><ele>2244.33</ele><time>2013-07-21T11:28:32Z</time></trkpt><trkpt lat="46.4932732657" lon="12.0560113527"><ele>2245.30</ele><time>2013-07-21T11:28:43Z</time></trkpt><trkpt lat="46.4933045302" lon="12.0559869613"><ele>2246.26</ele><time>2013-07-21T11:28:52Z</time></trkpt><trkpt lat="46.4933161810" lon="12.0559256896"><ele>2247.70</ele><time>2013-07-21T11:29:01Z</time></trkpt><trkpt lat="46.4933204558" lon="12.0558405295"><ele>2249.14</ele><time>2013-07-21T11:29:11Z</time></trkpt><trkpt lat="46.4933248144" lon="12.0558132883"><ele>2249.62</ele><time>2013-07-21T11:29:13Z</time></trkpt><trkpt lat="46.4933298435" lon="12.0557602309"><ele>2249.62</ele><time>2013-07-21T11:29:19Z</time></trkpt><trkpt lat="46.4933331124" lon="12.0557351690"><ele>2250.10</ele><time>2013-07-21T11:29:23Z</time></trkpt><trkpt lat="46.4933430031" lon="12.0556539483"><ele>2250.58</ele><time>2013-07-21T11:29:31Z</time></trkpt><trkpt lat="46.4933480322" lon="12.0555925090"><ele>2252.03</ele><time>2013-07-21T11:29:41Z</time></trkpt><trkpt lat="46.4933489542" lon="12.0555288903"><ele>2252.99</ele><time>2013-07-21T11:29:49Z</time></trkpt><trkpt lat="46.4933130797" lon="12.0554830413"><ele>2253.95</ele><time>2013-07-21T11:29:58Z</time></trkpt><trkpt lat="46.4933053683" lon="12.0554752462"><ele>2254.91</ele><time>2013-07-21T11:30:00Z</time></trkpt><trkpt lat="46.4932570048" lon="12.0554574765"><ele>2255.39</ele><time>2013-07-21T11:30:09Z</time></trkpt><trkpt lat="46.4932315238" lon="12.0554224402"><ele>2256.83</ele><time>2013-07-21T11:30:19Z</time></trkpt><trkpt lat="46.4932278357" lon="12.0554166567"><ele>2256.35</ele><time>2013-07-21T11:30:33Z</time></trkpt><trkpt lat="46.4932141732" lon="12.0554025751"><ele>2257.31</ele><time>2013-07-21T11:30:45Z</time></trkpt><trkpt lat="46.4932123292" lon="12.0554012340"><ele>2257.79</ele><time>2013-07-21T11:30:48Z</time></trkpt><trkpt lat="46.4931558352" lon="12.0553810336"><ele>2257.79</ele><time>2013-07-21T11:30:56Z</time></trkpt><trkpt lat="46.4931012690" lon="12.0553345978"><ele>2258.75</ele><time>2013-07-21T11:31:05Z</time></trkpt><trkpt lat="46.4930580184" lon="12.0552861504"><ele>2260.20</ele><time>2013-07-21T11:31:15Z</time></trkpt><trkpt lat="46.4930971619" lon="12.0552579034"><ele>2262.12</ele><time>2013-07-21T11:31:25Z</time></trkpt><trkpt lat="46.4931036998" lon="12.0552197658"><ele>2263.08</ele><time>2013-07-21T11:31:34Z</time></trkpt><trkpt lat="46.4931447711" lon="12.0551765990"><ele>2264.52</ele><time>2013-07-21T11:31:44Z</time></trkpt><trkpt lat="46.4931589365" lon="12.0551636908"><ele>2265.48</ele><time>2013-07-21T11:31:54Z</time></trkpt><trkpt lat="46.4931886084" lon="12.0551372878"><ele>2266.93</ele><time>2013-07-21T11:32:04Z</time></trkpt><trkpt lat="46.4932316076" lon="12.0550874993"><ele>2268.85</ele><time>2013-07-21T11:32:17Z</time></trkpt><trkpt lat="46.4932599384" lon="12.0550764352"><ele>2270.29</ele><time>2013-07-21T11:32:28Z</time></trkpt><trkpt lat="46.4932404924" lon="12.0550564863"><ele>2271.73</ele><time>2013-07-21T11:32:38Z</time></trkpt><trkpt lat="46.4932155982" lon="12.0550244674"><ele>2273.17</ele><time>2013-07-21T11:32:49Z</time></trkpt><trkpt lat="46.4932062104" lon="12.0549947955"><ele>2274.14</ele><time>2013-07-21T11:32:58Z</time></trkpt><trkpt lat="46.4931632113" lon="12.0549745951"><ele>2275.58</ele><time>2013-07-21T11:33:08Z</time></trkpt><trkpt lat="46.4931105729" lon="12.0549733378"><ele>2277.02</ele><time>2013-07-21T11:33:20Z</time></trkpt><trkpt lat="46.4930839185" lon="12.0549546462"><ele>2278.46</ele><time>2013-07-21T11:33:28Z</time></trkpt><trkpt lat="46.4930630475" lon="12.0549528021"><ele>2279.90</ele><time>2013-07-21T11:33:38Z</time></trkpt><trkpt lat="46.4930086490" lon="12.0549394749"><ele>2280.87</ele><time>2013-07-21T11:33:48Z</time></trkpt><trkpt lat="46.4929995965" lon="12.0549369603"><ele>2281.83</ele><time>2013-07-21T11:33:56Z</time></trkpt><trkpt lat="46.4929485507" lon="12.0549224596"><ele>2282.79</ele><time>2013-07-21T11:34:04Z</time></trkpt><trkpt lat="46.4929646440" lon="12.0548797958"><ele>2284.23</ele><time>2013-07-21T11:34:15Z</time></trkpt><trkpt lat="46.4929612912" lon="12.0548398979"><ele>2285.19</ele><time>2013-07-21T11:34:22Z</time></trkpt><trkpt lat="46.4929628838" lon="12.0548362099"><ele>2286.63</ele><time>2013-07-21T11:34:33Z</time></trkpt><trkpt lat="46.4929924719" lon="12.0547812246"><ele>2288.08</ele><time>2013-07-21T11:34:43Z</time></trkpt><trkpt lat="46.4930165280" lon="12.0547505468"><ele>2289.52</ele><time>2013-07-21T11:34:54Z</time></trkpt><trkpt lat="46.4930383209" lon="12.0547004230"><ele>2290.00</ele><time>2013-07-21T11:35:03Z</time></trkpt><trkpt lat="46.4930385724" lon="12.0546994172"><ele>2291.44</ele><time>2013-07-21T11:35:14Z</time></trkpt><trkpt lat="46.4930620417" lon="12.0546894427"><ele>2291.44</ele><time>2013-07-21T11:35:26Z</time></trkpt><trkpt lat="46.4930972457" lon="12.0546356309"><ele>2292.88</ele><time>2013-07-21T11:35:36Z</time></trkpt><trkpt lat="46.4931192901" lon="12.0546157658"><ele>2293.36</ele><time>2013-07-21T11:35:39Z</time></trkpt><trkpt lat="46.4931571763" lon="12.0545705035"><ele>2294.32</ele><time>2013-07-21T11:35:49Z</time></trkpt><trkpt lat="46.4931718446" lon="12.0545509737"><ele>2295.77</ele><time>2013-07-21T11:36:00Z</time></trkpt><trkpt lat="46.4931713417" lon="12.0545207150"><ele>2297.21</ele><time>2013-07-21T11:36:10Z</time></trkpt><trkpt lat="46.4932083897" lon="12.0544615388"><ele>2299.13</ele><time>2013-07-21T11:36:22Z</time></trkpt><trkpt lat="46.4932258241" lon="12.0544127561"><ele>2300.57</ele><time>2013-07-21T11:36:31Z</time></trkpt><trkpt lat="46.4932753611" lon="12.0543524902"><ele>2302.49</ele><time>2013-07-21T11:36:44Z</time></trkpt><trkpt lat="46.4933134150" lon="12.0542695932"><ele>2303.94</ele><time>2013-07-21T11:36:55Z</time></trkpt><trkpt lat="46.4933349565" lon="12.0542428549"><ele>2304.90</ele><time>2013-07-21T11:37:06Z</time></trkpt><trkpt lat="46.4933412429" lon="12.0542125124"><ele>2306.82</ele><time>2013-07-21T11:37:17Z</time></trkpt><trkpt lat="46.4933671430" lon="12.0542028733"><ele>2307.30</ele><time>2013-07-21T11:37:26Z</time></trkpt><trkpt lat="46.4933714177" lon="12.0541768055"><ele>2309.22</ele><time>2013-07-21T11:37:36Z</time></trkpt><trkpt lat="46.4934035204" lon="12.0541148633"><ele>2310.67</ele><time>2013-07-21T11:37:46Z</time></trkpt><trkpt lat="46.4934339467" lon="12.0540551003"><ele>2312.11</ele><time>2013-07-21T11:37:57Z</time></trkpt><trkpt lat="46.4934374671" lon="12.0540460479"><ele>2313.07</ele><time>2013-07-21T11:38:06Z</time></trkpt><trkpt lat="46.4934085496" lon="12.0540507417"><ele>2314.51</ele><time>2013-07-21T11:38:19Z</time></trkpt><trkpt lat="46.4933943842" lon="12.0540500712"><ele>2315.95</ele><time>2013-07-21T11:38:28Z</time></trkpt><trkpt lat="46.4933709987" lon="12.0540725347"><ele>2317.40</ele><time>2013-07-21T11:38:40Z</time></trkpt><trkpt lat="46.4933344536" lon="12.0540184714"><ele>2318.84</ele><time>2013-07-21T11:38:50Z</time></trkpt><trkpt lat="46.4933411591" lon="12.0539565291"><ele>2319.80</ele><time>2013-07-21T11:39:01Z</time></trkpt><trkpt lat="46.4933439251" lon="12.0539215766"><ele>2321.72</ele><time>2013-07-21T11:39:12Z</time></trkpt><trkpt lat="46.4933665562" lon="12.0538874622"><ele>2323.16</ele><time>2013-07-21T11:39:21Z</time></trkpt><trkpt lat="46.4933780394" lon="12.0538804214"><ele>2324.12</ele><time>2013-07-21T11:39:31Z</time></trkpt><trkpt lat="46.4933925401" lon="12.0538576227"><ele>2324.61</ele><time>2013-07-21T11:39:44Z</time></trkpt><trkpt lat="46.4934239723" lon="12.0537878014"><ele>2326.53</ele><time>2013-07-21T11:39:54Z</time></trkpt><trkpt lat="46.4934522193" lon="12.0537634939"><ele>2327.49</ele><time>2013-07-21T11:40:04Z</time></trkpt><trkpt lat="46.4934629481" lon="12.0537345763"><ele>2328.45</ele><time>2013-07-21T11:40:19Z</time></trkpt><trkpt lat="46.4934880100" lon="12.0537142083"><ele>2330.37</ele><time>2013-07-21T11:40:28Z</time></trkpt><trkpt lat="46.4935004991" lon="12.0536930859"><ele>2331.81</ele><time>2013-07-21T11:40:37Z</time></trkpt><trkpt lat="46.4935061987" lon="12.0536853746"><ele>2332.78</ele><time>2013-07-21T11:40:46Z</time></trkpt><trkpt lat="46.4935029298" lon="12.0536661800"><ele>2334.22</ele><time>2013-07-21T11:40:55Z</time></trkpt><trkpt lat="46.4935278241" lon="12.0536238514"><ele>2335.66</ele><time>2013-07-21T11:41:08Z</time></trkpt><trkpt lat="46.4935586695" lon="12.0535754040"><ele>2337.10</ele><time>2013-07-21T11:41:19Z</time></trkpt><trkpt lat="46.4935963042" lon="12.0535286330"><ele>2338.06</ele><time>2013-07-21T11:41:28Z</time></trkpt><trkpt lat="46.4936134871" lon="12.0534836221"><ele>2339.99</ele><time>2013-07-21T11:41:38Z</time></trkpt><trkpt lat="46.4936357830" lon="12.0534773357"><ele>2340.47</ele><time>2013-07-21T11:41:50Z</time></trkpt><trkpt lat="46.4936712384" lon="12.0534650143"><ele>2341.91</ele><time>2013-07-21T11:42:00Z</time></trkpt><trkpt lat="46.4936712384" lon="12.0534650143"><ele>2342.39</ele><time>2013-07-21T11:42:16Z</time></trkpt><trkpt lat="46.4937025867" lon="12.0534457359"><ele>2343.83</ele><time>2013-07-21T11:42:26Z</time></trkpt><trkpt lat="46.4937176742" lon="12.0534281339"><ele>2344.79</ele><time>2013-07-21T11:42:33Z</time></trkpt><trkpt lat="46.4937190153" lon="12.0534240268"><ele>2345.75</ele><time>2013-07-21T11:42:43Z</time></trkpt><trkpt lat="46.4937558118" lon="12.0533492602"><ele>2347.68</ele><time>2013-07-21T11:42:55Z</time></trkpt><trkpt lat="46.4937662892" lon="12.0533294789"><ele>2348.16</ele><time>2013-07-21T11:43:10Z</time></trkpt><trkpt lat="46.4937877469" lon="12.0532794390"><ele>2349.12</ele><time>2013-07-21T11:43:20Z</time></trkpt><trkpt lat="46.4937956259" lon="12.0532707218"><ele>2349.12</ele><time>2013-07-21T11:43:21Z</time></trkpt><trkpt lat="46.4938190952" lon="12.0532567240"><ele>2349.12</ele><time>2013-07-21T11:43:23Z</time></trkpt><trkpt lat="46.4938525390" lon="12.0531786047"><ele>2350.08</ele><time>2013-07-21T11:43:33Z</time></trkpt><trkpt lat="46.4938690513" lon="12.0531532913"><ele>2351.52</ele><time>2013-07-21T11:43:41Z</time></trkpt><trkpt lat="46.4939033333" lon="12.0531227812"><ele>2352.48</ele><time>2013-07-21T11:43:52Z</time></trkpt><trkpt lat="46.4939262159" lon="12.0531073585"><ele>2354.41</ele><time>2013-07-21T11:44:03Z</time></trkpt><trkpt lat="46.4939448237" lon="12.0530844759"><ele>2355.37</ele><time>2013-07-21T11:44:15Z</time></trkpt><trkpt lat="46.4939884096" lon="12.0530423988"><ele>2357.29</ele><time>2013-07-21T11:44:25Z</time></trkpt><trkpt lat="46.4940222725" lon="12.0530139003"><ele>2358.73</ele><time>2013-07-21T11:44:38Z</time></trkpt><trkpt lat="46.4940341748" lon="12.0529885031"><ele>2361.14</ele><time>2013-07-21T11:44:51Z</time></trkpt><trkpt lat="46.4940627571" lon="12.0529544726"><ele>2362.10</ele><time>2013-07-21T11:45:00Z</time></trkpt><trkpt lat="46.4941024035" lon="12.0529256389"><ele>2363.54</ele><time>2013-07-21T11:45:09Z</time></trkpt><trkpt lat="46.4940956980" lon="12.0529502816"><ele>2364.02</ele><time>2013-07-21T11:45:28Z</time></trkpt><trkpt lat="46.4940956980" lon="12.0529502816"><ele>2364.02</ele><time>2013-07-21T11:45:57Z</time></trkpt><trkpt lat="46.4941190835" lon="12.0529247168"><ele>2365.94</ele><time>2013-07-21T11:46:08Z</time></trkpt><trkpt lat="46.4941390324" lon="12.0528753474"><ele>2366.90</ele><time>2013-07-21T11:46:17Z</time></trkpt><trkpt lat="46.4941720571" lon="12.0528387185"><ele>2368.83</ele><time>2013-07-21T11:46:27Z</time></trkpt><trkpt lat="46.4941801876" lon="12.0528160036"><ele>2369.79</ele><time>2013-07-21T11:46:39Z</time></trkpt><trkpt lat="46.4941682015" lon="12.0527958032"><ele>2371.23</ele><time>2013-07-21T11:46:49Z</time></trkpt><trkpt lat="46.4941606577" lon="12.0527917799"><ele>2373.15</ele><time>2013-07-21T11:46:59Z</time></trkpt><trkpt lat="46.4941437263" lon="12.0527906064"><ele>2373.63</ele><time>2013-07-21T11:47:09Z</time></trkpt><trkpt lat="46.4941209275" lon="12.0527716633"><ele>2375.07</ele><time>2013-07-21T11:47:18Z</time></trkpt><trkpt lat="46.4941003919" lon="12.0527774468"><ele>2376.52</ele><time>2013-07-21T11:47:30Z</time></trkpt><trkpt lat="46.4940869808" lon="12.0527609345"><ele>2377.48</ele><time>2013-07-21T11:47:39Z</time></trkpt><trkpt lat="46.4940617513" lon="12.0527489483"><ele>2378.44</ele><time>2013-07-21T11:47:47Z</time></trkpt><trkpt lat="46.4940406289" lon="12.0527521335"><ele>2378.92</ele><time>2013-07-21T11:47:57Z</time></trkpt><trkpt lat="46.4940403774" lon="12.0527227968"><ele>2379.40</ele><time>2013-07-21T11:48:08Z</time></trkpt><trkpt lat="46.4940463286" lon="12.0526709128"><ele>2381.32</ele><time>2013-07-21T11:48:17Z</time></trkpt><trkpt lat="46.4940781798" lon="12.0526326913"><ele>2383.73</ele><time>2013-07-21T11:48:27Z</time></trkpt><trkpt lat="46.4941205084" lon="12.0525741018"><ele>2385.65</ele><time>2013-07-21T11:48:37Z</time></trkpt><trkpt lat="46.4941614121" lon="12.0525288396"><ele>2387.09</ele><time>2013-07-21T11:48:48Z</time></trkpt><trkpt lat="46.4942072611" lon="12.0524984971"><ele>2386.61</ele><time>2013-07-21T11:48:56Z</time></trkpt><trkpt lat="46.4942448121" lon="12.0524690766"><ele>2388.05</ele><time>2013-07-21T11:49:06Z</time></trkpt><trkpt lat="46.4942631684" lon="12.0524653886"><ele>2389.01</ele><time>2013-07-21T11:49:18Z</time></trkpt><trkpt lat="46.4942816086" lon="12.0524477027"><ele>2390.94</ele><time>2013-07-21T11:49:27Z</time></trkpt><trkpt lat="46.4942911640" lon="12.0524280891"><ele>2392.38</ele><time>2013-07-21T11:49:39Z</time></trkpt><trkpt lat="46.4942889847" lon="12.0524474513"><ele>2394.30</ele><time>2013-07-21T11:49:46Z</time></trkpt><trkpt lat="46.4942944329" lon="12.0524746086"><ele>2394.78</ele><time>2013-07-21T11:49:51Z</time></trkpt><trkpt lat="46.4943016414" lon="12.0524919592"><ele>2396.22</ele><time>2013-07-21T11:50:01Z</time></trkpt><trkpt lat="46.4943057485" lon="12.0524976589"><ele>2397.18</ele><time>2013-07-21T11:50:13Z</time></trkpt><trkpt lat="46.4943057485" lon="12.0524976589"><ele>2397.67</ele><time>2013-07-21T11:50:35Z</time></trkpt><trkpt lat="46.4943057485" lon="12.0524976589"><ele>2398.15</ele><time>2013-07-21T11:50:47Z</time></trkpt><trkpt lat="46.4943245240" lon="12.0524607785"><ele>2399.59</ele><time>2013-07-21T11:50:57Z</time></trkpt><trkpt lat="46.4943712950" lon="12.0524277538"><ele>2401.03</ele><time>2013-07-21T11:51:08Z</time></trkpt><trkpt lat="46.4943909924" lon="12.0524176117"><ele>2403.43</ele><time>2013-07-21T11:51:20Z</time></trkpt><trkpt lat="46.4944020566" lon="12.0523840003"><ele>2405.36</ele><time>2013-07-21T11:51:31Z</time></trkpt><trkpt lat="46.4944048226" lon="12.0523763727"><ele>2406.32</ele><time>2013-07-21T11:51:44Z</time></trkpt><trkpt lat="46.4944081753" lon="12.0523843355"><ele>2407.28</ele><time>2013-07-21T11:51:56Z</time></trkpt><trkpt lat="46.4944082592" lon="12.0523832459"><ele>2407.76</ele><time>2013-07-21T11:52:14Z</time></trkpt><trkpt lat="46.4944282081" lon="12.0523950644"><ele>2408.24</ele><time>2013-07-21T11:52:29Z</time></trkpt><trkpt lat="46.4944394398" lon="12.0523982495"><ele>2408.72</ele><time>2013-07-21T11:52:31Z</time></trkpt><trkpt lat="46.4945129491" lon="12.0524011832"><ele>2409.68</ele><time>2013-07-21T11:52:39Z</time></trkpt><trkpt lat="46.4945320599" lon="12.0524023566"><ele>2411.12</ele><time>2013-07-21T11:52:49Z</time></trkpt><trkpt lat="46.4945320599" lon="12.0524023566"><ele>2413.53</ele><time>2013-07-21T11:53:01Z</time></trkpt><trkpt lat="46.4945320599" lon="12.0524023566"><ele>2413.53</ele><time>2013-07-21T11:53:03Z</time></trkpt><trkpt lat="46.4946275298" lon="12.0523361396"><ele>2412.57</ele><time>2013-07-21T11:53:15Z</time></trkpt><trkpt lat="46.4946270268" lon="12.0523285121"><ele>2412.57</ele><time>2013-07-21T11:53:27Z</time></trkpt><trkpt lat="46.4946460538" lon="12.0522890333"><ele>2411.12</ele><time>2013-07-21T11:53:36Z</time></trkpt><trkpt lat="46.4946589619" lon="12.0522437710"><ele>2410.16</ele><time>2013-07-21T11:53:44Z</time></trkpt><trkpt lat="46.4947059005" lon="12.0521929767"><ele>2409.68</ele><time>2013-07-21T11:53:51Z</time></trkpt><trkpt lat="46.4947249275" lon="12.0520679187"><ele>2411.12</ele><time>2013-07-21T11:54:00Z</time></trkpt><trkpt lat="46.4947265200" lon="12.0520568546"><ele>2412.57</ele><time>2013-07-21T11:54:11Z</time></trkpt><trkpt lat="46.4947401825" lon="12.0520234946"><ele>2413.05</ele><time>2013-07-21T11:54:20Z</time></trkpt><trkpt lat="46.4947350696" lon="12.0519870333"><ele>2414.97</ele><time>2013-07-21T11:54:29Z</time></trkpt><trkpt lat="46.4947281126" lon="12.0519735385"><ele>2416.41</ele><time>2013-07-21T11:54:39Z</time></trkpt><trkpt lat="46.4947281126" lon="12.0519735385"><ele>2416.41</ele><time>2013-07-21T11:54:52Z</time></trkpt><trkpt lat="46.4947297890" lon="12.0519593731"><ele>2417.85</ele><time>2013-07-21T11:55:03Z</time></trkpt><trkpt lat="46.4947340637" lon="12.0519299526"><ele>2419.30</ele><time>2013-07-21T11:55:13Z</time></trkpt><trkpt lat="46.4947232511" lon="12.0518727880"><ele>2419.78</ele><time>2013-07-21T11:55:23Z</time></trkpt><trkpt lat="46.4947204851" lon="12.0518484805"><ele>2421.22</ele><time>2013-07-21T11:55:38Z</time></trkpt><trkpt lat="46.4947297890" lon="12.0518395118"><ele>2421.70</ele><time>2013-07-21T11:55:51Z</time></trkpt><trkpt lat="46.4947443735" lon="12.0517931599"><ele>2423.14</ele><time>2013-07-21T11:56:00Z</time></trkpt><trkpt lat="46.4947703574" lon="12.0517442934"><ele>2423.62</ele><time>2013-07-21T11:56:06Z</time></trkpt><trkpt lat="46.4947918989" lon="12.0517038926"><ele>2423.14</ele><time>2013-07-21T11:56:11Z</time></trkpt><trkpt lat="46.4948071539" lon="12.0517407730"><ele>2422.18</ele><time>2013-07-21T11:56:21Z</time></trkpt><trkpt lat="46.4948071539" lon="12.0517407730"><ele>2422.66</ele><time>2013-07-21T11:56:49Z</time></trkpt><trkpt lat="46.4948104229" lon="12.0517415274"><ele>2422.66</ele><time>2013-07-21T11:57:13Z</time></trkpt><trkpt lat="46.4948104229" lon="12.0517415274"><ele>2422.66</ele><time>2013-07-21T11:57:32Z</time></trkpt><trkpt lat="46.4948219061" lon="12.0517515019"><ele>2422.66</ele><time>2013-07-21T11:57:53Z</time></trkpt><trkpt lat="46.4948219061" lon="12.0517515019"><ele>2422.66</ele><time>2013-07-21T11:58:07Z</time></trkpt><trkpt lat="46.4948170446" lon="12.0517435391"><ele>2423.14</ele><time>2013-07-21T11:58:14Z</time></trkpt><trkpt lat="46.4948337246" lon="12.0517599676"><ele>2421.22</ele><time>2013-07-21T11:58:23Z</time></trkpt><trkpt lat="46.4948437829" lon="12.0517398510"><ele>2420.26</ele><time>2013-07-21T11:58:30Z</time></trkpt><trkpt lat="46.4948437829" lon="12.0517398510"><ele>2420.74</ele><time>2013-07-21T11:58:32Z</time></trkpt><trkpt lat="46.4948811661" lon="12.0517296251"><ele>2423.14</ele><time>2013-07-21T11:58:41Z</time></trkpt><trkpt lat="46.4948851056" lon="12.0517168008"><ele>2423.14</ele><time>2013-07-21T11:58:45Z</time></trkpt><trkpt lat="46.4948992711" lon="12.0516933315"><ele>2424.58</ele><time>2013-07-21T11:58:54Z</time></trkpt><trkpt lat="46.4948903862" lon="12.0516717900"><ele>2426.50</ele><time>2013-07-21T11:59:03Z</time></trkpt><trkpt lat="46.4948903862" lon="12.0516717900"><ele>2426.50</ele><time>2013-07-21T11:59:04Z</time></trkpt><trkpt lat="46.4949020371" lon="12.0516577084"><ele>2427.95</ele><time>2013-07-21T11:59:13Z</time></trkpt><trkpt lat="46.4949065633" lon="12.0516520925"><ele>2429.39</ele><time>2013-07-21T11:59:24Z</time></trkpt><trkpt lat="46.4949065633" lon="12.0516520925"><ele>2430.83</ele><time>2013-07-21T11:59:35Z</time></trkpt><trkpt lat="46.4949065633" lon="12.0516520925"><ele>2431.31</ele><time>2013-07-21T11:59:50Z</time></trkpt><trkpt lat="46.4949064795" lon="12.0516535174"><ele>2432.75</ele><time>2013-07-21T12:00:01Z</time></trkpt><trkpt lat="46.4949064795" lon="12.0516535174"><ele>2433.71</ele><time>2013-07-21T12:00:10Z</time></trkpt><trkpt lat="46.4949278533" lon="12.0517102629"><ele>2435.16</ele><time>2013-07-21T12:00:18Z</time></trkpt><trkpt lat="46.4949718583" lon="12.0516679343"><ele>2436.12</ele><time>2013-07-21T12:00:28Z</time></trkpt><trkpt lat="46.4949718583" lon="12.0516679343"><ele>2437.08</ele><time>2013-07-21T12:00:44Z</time></trkpt><trkpt lat="46.4949718583" lon="12.0516679343"><ele>2436.60</ele><time>2013-07-21T12:00:55Z</time></trkpt><trkpt lat="46.4949805755" lon="12.0516481530"><ele>2438.04</ele><time>2013-07-21T12:01:06Z</time></trkpt><trkpt lat="46.4950073976" lon="12.0515593886"><ele>2439.48</ele><time>2013-07-21T12:01:17Z</time></trkpt><trkpt lat="46.4950048830" lon="12.0515417866"><ele>2440.92</ele><time>2013-07-21T12:01:28Z</time></trkpt><trkpt lat="46.4950174559" lon="12.0515417866"><ele>2441.89</ele><time>2013-07-21T12:01:40Z</time></trkpt><trkpt lat="46.4950411767" lon="12.0515417866"><ele>2442.85</ele><time>2013-07-21T12:01:55Z</time></trkpt><trkpt lat="46.4950918034" lon="12.0515048224"><ele>2444.77</ele><time>2013-07-21T12:02:04Z</time></trkpt><trkpt lat="46.4951056335" lon="12.0515113603"><ele>2445.73</ele><time>2013-07-21T12:02:20Z</time></trkpt><trkpt lat="46.4951450285" lon="12.0514807664"><ele>2446.69</ele><time>2013-07-21T12:02:30Z</time></trkpt><trkpt lat="46.4951780532" lon="12.0514441375"><ele>2448.62</ele><time>2013-07-21T12:02:41Z</time></trkpt><trkpt lat="46.4951990079" lon="12.0514187403"><ele>2449.10</ele><time>2013-07-21T12:02:54Z</time></trkpt><trkpt lat="46.4952246565" lon="12.0513756573"><ele>2449.10</ele><time>2013-07-21T12:03:03Z</time></trkpt><trkpt lat="46.4952246565" lon="12.0513756573"><ele>2449.10</ele><time>2013-07-21T12:03:29Z</time></trkpt><trkpt lat="46.4952250756" lon="12.0513759088"><ele>2449.58</ele><time>2013-07-21T12:03:56Z</time></trkpt><trkpt lat="46.4952241536" lon="12.0513747353"><ele>2449.10</ele><time>2013-07-21T12:04:09Z</time></trkpt><trkpt lat="46.4952241536" lon="12.0513747353"><ele>2449.58</ele><time>2013-07-21T12:04:25Z</time></trkpt><trkpt lat="46.4952241536" lon="12.0513747353"><ele>2449.58</ele><time>2013-07-21T12:04:38Z</time></trkpt><trkpt lat="46.4952276740" lon="12.0513728913"><ele>2449.58</ele><time>2013-07-21T12:05:03Z</time></trkpt><trkpt lat="46.4952276740" lon="12.0513728913"><ele>2449.58</ele><time>2013-07-21T12:05:24Z</time></trkpt><trkpt lat="46.4952294342" lon="12.0513723046"><ele>2449.58</ele><time>2013-07-21T12:05:39Z</time></trkpt><trkpt lat="46.4952296019" lon="12.0513762441"><ele>2449.58</ele><time>2013-07-21T12:05:54Z</time></trkpt><trkpt lat="46.4952296019" lon="12.0513762441"><ele>2449.58</ele><time>2013-07-21T12:06:09Z</time></trkpt><trkpt lat="46.4952303562" lon="12.0513758250"><ele>2449.58</ele><time>2013-07-21T12:06:32Z</time></trkpt><trkpt lat="46.4952345472" lon="12.0513746515"><ele>2449.58</ele><time>2013-07-21T12:06:54Z</time></trkpt><trkpt lat="46.4952387381" lon="12.0513454825"><ele>2445.25</ele><time>2013-07-21T12:06:58Z</time></trkpt><trkpt lat="46.4952529036" lon="12.0513433032"><ele>2449.10</ele><time>2013-07-21T12:07:07Z</time></trkpt><trkpt lat="46.4952529036" lon="12.0513433032"><ele>2449.58</ele><time>2013-07-21T12:07:29Z</time></trkpt><trkpt lat="46.4952529874" lon="12.0513447281"><ele>2449.10</ele><time>2013-07-21T12:07:52Z</time></trkpt><trkpt lat="46.4952529874" lon="12.0513447281"><ele>2449.10</ele><time>2013-07-21T12:08:11Z</time></trkpt><trkpt lat="46.4952533226" lon="12.0513526071"><ele>2449.10</ele><time>2013-07-21T12:08:25Z</time></trkpt><trkpt lat="46.4952517301" lon="12.0513407886"><ele>2449.58</ele><time>2013-07-21T12:08:33Z</time></trkpt><trkpt lat="46.4952624589" lon="12.0512932632"><ele>2450.54</ele><time>2013-07-21T12:08:38Z</time></trkpt><trkpt lat="46.4952872694" lon="12.0511766709"><ele>2448.13</ele><time>2013-07-21T12:08:48Z</time></trkpt><trkpt lat="46.4952978306" lon="12.0511250384"><ele>2447.17</ele><time>2013-07-21T12:08:55Z</time></trkpt><trkpt lat="46.4953121636" lon="12.0510803629"><ele>2446.21</ele><time>2013-07-21T12:08:59Z</time></trkpt><trkpt lat="46.4952893648" lon="12.0510507748"><ele>2446.69</ele><time>2013-07-21T12:09:04Z</time></trkpt><trkpt lat="46.4952545799" lon="12.0509675425"><ele>2446.69</ele><time>2013-07-21T12:09:13Z</time></trkpt><trkpt lat="46.4952233993" lon="12.0509062707"><ele>2447.65</ele><time>2013-07-21T12:09:24Z</time></trkpt><trkpt lat="46.4952030312" lon="12.0508555602"><ele>2448.13</ele><time>2013-07-21T12:09:33Z</time></trkpt><trkpt lat="46.4951920509" lon="12.0508332644"><ele>2448.13</ele><time>2013-07-21T12:09:43Z</time></trkpt><trkpt lat="46.4951840881" lon="12.0507915225"><ele>2448.62</ele><time>2013-07-21T12:09:52Z</time></trkpt><trkpt lat="46.4951446094" lon="12.0507900137"><ele>2449.58</ele><time>2013-07-21T12:09:59Z</time></trkpt><trkpt lat="46.4951016102" lon="12.0508337673"><ele>2451.50</ele><time>2013-07-21T12:10:10Z</time></trkpt><trkpt lat="46.4950604551" lon="12.0508362819"><ele>2451.50</ele><time>2013-07-21T12:10:19Z</time></trkpt><trkpt lat="46.4950376563" lon="12.0508470107"><ele>2453.42</ele><time>2013-07-21T12:10:29Z</time></trkpt><trkpt lat="46.4949946571" lon="12.0508719888"><ele>2454.38</ele><time>2013-07-21T12:10:38Z</time></trkpt><trkpt lat="46.4949301165" lon="12.0508916024"><ele>2455.34</ele><time>2013-07-21T12:10:47Z</time></trkpt><trkpt lat="46.4949027915" lon="12.0508986432"><ele>2456.31</ele><time>2013-07-21T12:10:51Z</time></trkpt><trkpt lat="46.4948763885" lon="12.0508998167"><ele>2455.82</ele><time>2013-07-21T12:10:54Z</time></trkpt><trkpt lat="46.4948295336" lon="12.0508569852"><ele>2456.79</ele><time>2013-07-21T12:11:02Z</time></trkpt><trkpt lat="46.4947944973" lon="12.0508661214"><ele>2457.27</ele><time>2013-07-21T12:11:10Z</time></trkpt><trkpt lat="46.4947714470" lon="12.0508822147"><ele>2457.75</ele><time>2013-07-21T12:11:15Z</time></trkpt><trkpt lat="46.4947361592" lon="12.0508703962"><ele>2457.75</ele><time>2013-07-21T12:11:18Z</time></trkpt><trkpt lat="46.4947074931" lon="12.0508924406"><ele>2457.75</ele><time>2013-07-21T12:11:26Z</time></trkpt><trkpt lat="46.4946351573" lon="12.0509251300"><ele>2457.75</ele><time>2013-07-21T12:11:35Z</time></trkpt><trkpt lat="46.4946167171" lon="12.0509279799"><ele>2457.75</ele><time>2013-07-21T12:11:37Z</time></trkpt><trkpt lat="46.4945326466" lon="12.0509076118"><ele>2458.23</ele><time>2013-07-21T12:11:46Z</time></trkpt><trkpt lat="46.4944896474" lon="12.0509263035"><ele>2458.71</ele><time>2013-07-21T12:11:52Z</time></trkpt><trkpt lat="46.4944234304" lon="12.0509340148"><ele>2460.63</ele><time>2013-07-21T12:12:02Z</time></trkpt><trkpt lat="46.4944083430" lon="12.0509607531"><ele>2461.11</ele><time>2013-07-21T12:12:08Z</time></trkpt><trkpt lat="46.4943313133" lon="12.0509442408"><ele>2462.07</ele><time>2013-07-21T12:12:19Z</time></trkpt><trkpt lat="46.4943179861" lon="12.0509323385"><ele>2463.04</ele><time>2013-07-21T12:12:22Z</time></trkpt><trkpt lat="46.4942900743" lon="12.0509019122"><ele>2463.04</ele><time>2013-07-21T12:12:31Z</time></trkpt><trkpt lat="46.4942630846" lon="12.0509110484"><ele>2464.96</ele><time>2013-07-21T12:12:38Z</time></trkpt><trkpt lat="46.4942184929" lon="12.0509087015"><ele>2465.44</ele><time>2013-07-21T12:12:47Z</time></trkpt><trkpt lat="46.4942011423" lon="12.0509206876"><ele>2465.92</ele><time>2013-07-21T12:13:00Z</time></trkpt><trkpt lat="46.4941588975" lon="12.0509251300"><ele>2466.88</ele><time>2013-07-21T12:13:09Z</time></trkpt><trkpt lat="46.4941565506" lon="12.0509321708"><ele>2467.84</ele><time>2013-07-21T12:13:12Z</time></trkpt><trkpt lat="46.4941390324" lon="12.0509222802"><ele>2468.80</ele><time>2013-07-21T12:13:21Z</time></trkpt><trkpt lat="46.4941079356" lon="12.0509112999"><ele>2470.73</ele><time>2013-07-21T12:13:32Z</time></trkpt><trkpt lat="46.4940833766" lon="12.0508968830"><ele>2470.24</ele><time>2013-07-21T12:13:41Z</time></trkpt><trkpt lat="46.4940587338" lon="12.0508874953"><ele>2470.73</ele><time>2013-07-21T12:13:51Z</time></trkpt><trkpt lat="46.4940212667" lon="12.0508536324"><ele>2471.69</ele><time>2013-07-21T12:13:57Z</time></trkpt><trkpt lat="46.4939978812" lon="12.0508261397"><ele>2471.21</ele><time>2013-07-21T12:14:01Z</time></trkpt><trkpt lat="46.4939594921" lon="12.0507563185"><ele>2470.73</ele><time>2013-07-21T12:14:09Z</time></trkpt><trkpt lat="46.4939179178" lon="12.0507129841"><ele>2471.69</ele><time>2013-07-21T12:14:17Z</time></trkpt><trkpt lat="46.4938766789" lon="12.0506930351"><ele>2471.69</ele><time>2013-07-21T12:14:25Z</time></trkpt><trkpt lat="46.4938794449" lon="12.0506480243"><ele>2472.17</ele><time>2013-07-21T12:14:34Z</time></trkpt><trkpt lat="46.4938615076" lon="12.0505950507"><ele>2471.69</ele><time>2013-07-21T12:14:40Z</time></trkpt><trkpt lat="46.4937849808" lon="12.0505885966"><ele>2472.65</ele><time>2013-07-21T12:14:51Z</time></trkpt><trkpt lat="46.4937523752" lon="12.0505848248"><ele>2473.13</ele><time>2013-07-21T12:14:58Z</time></trkpt><trkpt lat="46.4936931990" lon="12.0505846571"><ele>2475.05</ele><time>2013-07-21T12:15:06Z</time></trkpt><trkpt lat="46.4936263952" lon="12.0505818073"><ele>2474.09</ele><time>2013-07-21T12:15:16Z</time></trkpt><trkpt lat="46.4935684763" lon="12.0505881775"><ele>2475.53</ele><time>2013-07-21T12:15:24Z</time></trkpt><trkpt lat="46.4935351163" lon="12.0505813044"><ele>2476.49</ele><time>2013-07-21T12:15:31Z</time></trkpt><trkpt lat="46.4935177658" lon="12.0505846571"><ele>2476.49</ele><time>2013-07-21T12:15:33Z</time></trkpt><trkpt lat="46.4934501238" lon="12.0505963080"><ele>2476.97</ele><time>2013-07-21T12:15:42Z</time></trkpt><trkpt lat="46.4934332762" lon="12.0506002475"><ele>2476.49</ele><time>2013-07-21T12:15:44Z</time></trkpt><trkpt lat="46.4934010059" lon="12.0506201126"><ele>2476.97</ele><time>2013-07-21T12:15:48Z</time></trkpt><trkpt lat="46.4933345374" lon="12.0506476890"><ele>2476.97</ele><time>2013-07-21T12:15:58Z</time></trkpt><trkpt lat="46.4933009259" lon="12.0506457612"><ele>2477.94</ele><time>2013-07-21T12:16:08Z</time></trkpt><trkpt lat="46.4932482876" lon="12.0506599266"><ele>2479.86</ele><time>2013-07-21T12:16:18Z</time></trkpt><trkpt lat="46.4932306018" lon="12.0506214537"><ele>2480.34</ele><time>2013-07-21T12:16:23Z</time></trkpt><trkpt lat="46.4932773728" lon="12.0504767820"><ele>2479.86</ele><time>2013-07-21T12:16:34Z</time></trkpt><trkpt lat="46.4933069609" lon="12.0503498800"><ele>2479.86</ele><time>2013-07-21T12:16:45Z</time></trkpt><trkpt lat="46.4933074638" lon="12.0503222197"><ele>2478.90</ele><time>2013-07-21T12:16:52Z</time></trkpt><trkpt lat="46.4933237247" lon="12.0502357185"><ele>2476.97</ele><time>2013-07-21T12:17:01Z</time></trkpt><trkpt lat="46.4933423325" lon="12.0501570124"><ele>2476.49</ele><time>2013-07-21T12:17:10Z</time></trkpt><trkpt lat="46.4933649637" lon="12.0501344651"><ele>2476.01</ele><time>2013-07-21T12:17:14Z</time></trkpt><trkpt lat="46.4934569970" lon="12.0500453655"><ele>2476.49</ele><time>2013-07-21T12:17:26Z</time></trkpt><trkpt lat="46.4935114793" lon="12.0499825012"><ele>2477.45</ele><time>2013-07-21T12:17:37Z</time></trkpt><trkpt lat="46.4935159218" lon="12.0499738678"><ele>2476.97</ele><time>2013-07-21T12:17:38Z</time></trkpt><trkpt lat="46.4935529698" lon="12.0499409270"><ele>2478.90</ele><time>2013-07-21T12:17:47Z</time></trkpt><trkpt lat="46.4935736731" lon="12.0498932339"><ele>2477.45</ele><time>2013-07-21T12:17:55Z</time></trkpt><trkpt lat="46.4935796242" lon="12.0498831756"><ele>2477.45</ele><time>2013-07-21T12:17:56Z</time></trkpt><trkpt lat="46.4936434105" lon="12.0497854427"><ele>2477.45</ele><time>2013-07-21T12:18:04Z</time></trkpt><trkpt lat="46.4936336037" lon="12.0496745501"><ele>2477.94</ele><time>2013-07-21T12:18:14Z</time></trkpt><trkpt lat="46.4936248865" lon="12.0496466383"><ele>2477.94</ele><time>2013-07-21T12:18:16Z</time></trkpt><trkpt lat="46.4936124813" lon="12.0495974366"><ele>2476.97</ele><time>2013-07-21T12:18:20Z</time></trkpt><trkpt lat="46.4936367888" lon="12.0494360849"><ele>2476.01</ele><time>2013-07-21T12:18:32Z</time></trkpt><trkpt lat="46.4936392196" lon="12.0494212490"><ele>2476.49</ele><time>2013-07-21T12:18:40Z</time></trkpt><trkpt lat="46.4936182648" lon="12.0493689459"><ele>2476.49</ele><time>2013-07-21T12:18:48Z</time></trkpt><trkpt lat="46.4936106373" lon="12.0493320655"><ele>2477.45</ele><time>2013-07-21T12:18:56Z</time></trkpt><trkpt lat="46.4936140738" lon="12.0492621604"><ele>2477.94</ele><time>2013-07-21T12:19:04Z</time></trkpt><trkpt lat="46.4936129004" lon="12.0492490847"><ele>2477.94</ele><time>2013-07-21T12:19:05Z</time></trkpt><trkpt lat="46.4936441649" lon="12.0491549559"><ele>2476.97</ele><time>2013-07-21T12:19:11Z</time></trkpt><trkpt lat="46.4936870802" lon="12.0489926822"><ele>2476.97</ele><time>2013-07-21T12:19:22Z</time></trkpt><trkpt lat="46.4937372040" lon="12.0488568116"><ele>2476.97</ele><time>2013-07-21T12:19:32Z</time></trkpt><trkpt lat="46.4937698096" lon="12.0487698913"><ele>2476.97</ele><time>2013-07-21T12:19:42Z</time></trkpt><trkpt lat="46.4937653672" lon="12.0487572346"><ele>2476.97</ele><time>2013-07-21T12:19:43Z</time></trkpt><trkpt lat="46.4937600866" lon="12.0487220306"><ele>2476.97</ele><time>2013-07-21T12:19:46Z</time></trkpt><trkpt lat="46.4937172551" lon="12.0486874133"><ele>2478.42</ele><time>2013-07-21T12:19:55Z</time></trkpt><trkpt lat="46.4936813805" lon="12.0486554783"><ele>2478.90</ele><time>2013-07-21T12:20:00Z</time></trkpt><trkpt lat="46.4936621860" lon="12.0486087073"><ele>2478.42</ele><time>2013-07-21T12:20:04Z</time></trkpt><trkpt lat="46.4936410636" lon="12.0485652890"><ele>2478.90</ele><time>2013-07-21T12:20:07Z</time></trkpt><trkpt lat="46.4936265629" lon="12.0485004131"><ele>2478.90</ele><time>2013-07-21T12:20:13Z</time></trkpt><trkpt lat="46.4936216176" lon="12.0484697353"><ele>2478.90</ele><time>2013-07-21T12:20:15Z</time></trkpt><trkpt lat="46.4936217014" lon="12.0483873412"><ele>2480.34</ele><time>2013-07-21T12:20:27Z</time></trkpt><trkpt lat="46.4936321788" lon="12.0483474433"><ele>2480.82</ele><time>2013-07-21T12:20:36Z</time></trkpt><trkpt lat="46.4936294965" lon="12.0482900273"><ele>2481.78</ele><time>2013-07-21T12:20:43Z</time></trkpt><trkpt lat="46.4936400577" lon="12.0482358802"><ele>2482.74</ele><time>2013-07-21T12:20:53Z</time></trkpt><trkpt lat="46.4936594199" lon="12.0481554139"><ele>2482.26</ele><time>2013-07-21T12:21:01Z</time></trkpt><trkpt lat="46.4936797880" lon="12.0481203776"><ele>2482.26</ele><time>2013-07-21T12:21:06Z</time></trkpt><trkpt lat="46.4937315043" lon="12.0480366424"><ele>2481.78</ele><time>2013-07-21T12:21:18Z</time></trkpt><trkpt lat="46.4937609248" lon="12.0479690004"><ele>2482.26</ele><time>2013-07-21T12:21:24Z</time></trkpt><trkpt lat="46.4937729109" lon="12.0479161106"><ele>2481.78</ele><time>2013-07-21T12:21:30Z</time></trkpt><trkpt lat="46.4937702287" lon="12.0478407573"><ele>2481.78</ele><time>2013-07-21T12:21:40Z</time></trkpt><trkpt lat="46.4937871601" lon="12.0477908012"><ele>2483.22</ele><time>2013-07-21T12:21:49Z</time></trkpt><trkpt lat="46.4938001521" lon="12.0477476344"><ele>2485.15</ele><time>2013-07-21T12:21:59Z</time></trkpt><trkpt lat="46.4938076958" lon="12.0477204770"><ele>2486.11</ele><time>2013-07-21T12:22:10Z</time></trkpt><trkpt lat="46.4938115515" lon="12.0477094967"><ele>2485.63</ele><time>2013-07-21T12:22:28Z</time></trkpt><trkpt lat="46.4938151557" lon="12.0476870332"><ele>2488.03</ele><time>2013-07-21T12:22:38Z</time></trkpt><trkpt lat="46.4938123059" lon="12.0476728678"><ele>2488.51</ele><time>2013-07-21T12:22:45Z</time></trkpt><trkpt lat="46.4937890042" lon="12.0476876199"><ele>2490.43</ele><time>2013-07-21T12:22:54Z</time></trkpt><trkpt lat="46.4937443286" lon="12.0477142744"><ele>2490.91</ele><time>2013-07-21T12:23:04Z</time></trkpt><trkpt lat="46.4937167522" lon="12.0477478858"><ele>2491.87</ele><time>2013-07-21T12:23:12Z</time></trkpt><trkpt lat="46.4936890081" lon="12.0477790665"><ele>2492.84</ele><time>2013-07-21T12:23:21Z</time></trkpt><trkpt lat="46.4936616831" lon="12.0478002727"><ele>2493.80</ele><time>2013-07-21T12:23:29Z</time></trkpt><trkpt lat="46.4936571568" lon="12.0477335528"><ele>2494.76</ele><time>2013-07-21T12:23:37Z</time></trkpt><trkpt lat="46.4936539717" lon="12.0477165375"><ele>2494.76</ele><time>2013-07-21T12:23:51Z</time></trkpt><trkpt lat="46.4936546423" lon="12.0477064792"><ele>2496.20</ele><time>2013-07-21T12:24:01Z</time></trkpt><trkpt lat="46.4936869964" lon="12.0476265997"><ele>2497.64</ele><time>2013-07-21T12:24:12Z</time></trkpt><trkpt lat="46.4937170036" lon="12.0475702733"><ele>2499.08</ele><time>2013-07-21T12:24:23Z</time></trkpt><trkpt lat="46.4937247988" lon="12.0475323871"><ele>2500.05</ele><time>2013-07-21T12:24:30Z</time></trkpt><trkpt lat="46.4937584102" lon="12.0474654995"><ele>2501.01</ele><time>2013-07-21T12:24:40Z</time></trkpt><trkpt lat="46.4937584102" lon="12.0474654995"><ele>2501.97</ele><time>2013-07-21T12:24:59Z</time></trkpt><trkpt lat="46.4937651996" lon="12.0474599674"><ele>2502.93</ele><time>2013-07-21T12:25:15Z</time></trkpt><trkpt lat="46.4937726595" lon="12.0474361628"><ele>2503.89</ele><time>2013-07-21T12:25:25Z</time></trkpt><trkpt lat="46.4937764313" lon="12.0474345703"><ele>2504.85</ele><time>2013-07-21T12:25:27Z</time></trkpt><trkpt lat="46.4938085340" lon="12.0473916549"><ele>2505.81</ele><time>2013-07-21T12:25:36Z</time></trkpt><trkpt lat="46.4938335121" lon="12.0473387651"><ele>2506.77</ele><time>2013-07-21T12:25:45Z</time></trkpt><trkpt lat="46.4938336797" lon="12.0473085064"><ele>2508.70</ele><time>2013-07-21T12:25:55Z</time></trkpt><trkpt lat="46.4938486833" lon="12.0472778287"><ele>2509.18</ele><time>2013-07-21T12:26:03Z</time></trkpt><trkpt lat="46.4938496053" lon="12.0472697821"><ele>2510.62</ele><time>2013-07-21T12:26:18Z</time></trkpt><trkpt lat="46.4938877430" lon="12.0472025592"><ele>2511.10</ele><time>2013-07-21T12:26:29Z</time></trkpt><trkpt lat="46.4939396270" lon="12.0471171476"><ele>2512.54</ele><time>2013-07-21T12:26:39Z</time></trkpt><trkpt lat="46.4939718973" lon="12.0470816083"><ele>2513.02</ele><time>2013-07-21T12:26:50Z</time></trkpt><trkpt lat="46.4939754177" lon="12.0470834523"><ele>2512.54</ele><time>2013-07-21T12:27:01Z</time></trkpt><trkpt lat="46.4939754177" lon="12.0470834523"><ele>2513.02</ele><time>2013-07-21T12:27:07Z</time></trkpt><trkpt lat="46.4940227754" lon="12.0470368490"><ele>2514.95</ele><time>2013-07-21T12:27:18Z</time></trkpt><trkpt lat="46.4940718934" lon="12.0469811093"><ele>2516.87</ele><time>2013-07-21T12:27:28Z</time></trkpt><trkpt lat="46.4941107854" lon="12.0469146408"><ele>2517.83</ele><time>2013-07-21T12:27:39Z</time></trkpt><trkpt lat="46.4941482525" lon="12.0468879025"><ele>2519.75</ele><time>2013-07-21T12:27:47Z</time></trkpt><trkpt lat="46.4941889048" lon="12.0468589850"><ele>2521.68</ele><time>2013-07-21T12:28:00Z</time></trkpt><trkpt lat="46.4942161459" lon="12.0468497649"><ele>2522.64</ele><time>2013-07-21T12:28:11Z</time></trkpt><trkpt lat="46.4942578040" lon="12.0468190033"><ele>2524.08</ele><time>2013-07-21T12:28:20Z</time></trkpt><trkpt lat="46.4942982886" lon="12.0468071848"><ele>2525.52</ele><time>2013-07-21T12:28:33Z</time></trkpt><trkpt lat="46.4943321515" lon="12.0467777643"><ele>2527.44</ele><time>2013-07-21T12:28:44Z</time></trkpt><trkpt lat="46.4943517651" lon="12.0467630960"><ele>2528.89</ele><time>2013-07-21T12:28:56Z</time></trkpt><trkpt lat="46.4944229275" lon="12.0467362739"><ele>2529.85</ele><time>2013-07-21T12:29:07Z</time></trkpt><trkpt lat="46.4944271185" lon="12.0467327535"><ele>2530.33</ele><time>2013-07-21T12:29:23Z</time></trkpt><trkpt lat="46.4944706205" lon="12.0467083622"><ele>2531.29</ele><time>2013-07-21T12:29:35Z</time></trkpt><trkpt lat="46.4944908209" lon="12.0466962922"><ele>2532.73</ele><time>2013-07-21T12:29:44Z</time></trkpt><trkpt lat="46.4945142064" lon="12.0466576517"><ele>2534.17</ele><time>2013-07-21T12:29:53Z</time></trkpt><trkpt lat="46.4945273660" lon="12.0466641895"><ele>2535.61</ele><time>2013-07-21T12:30:04Z</time></trkpt><trkpt lat="46.4945211634" lon="12.0466516167"><ele>2536.10</ele><time>2013-07-21T12:30:14Z</time></trkpt><trkpt lat="46.4945211634" lon="12.0466516167"><ele>2537.54</ele><time>2013-07-21T12:30:24Z</time></trkpt><trkpt lat="46.4945301320" lon="12.0466335118"><ele>2538.02</ele><time>2013-07-21T12:30:39Z</time></trkpt><trkpt lat="46.4945525955" lon="12.0466165803"><ele>2539.94</ele><time>2013-07-21T12:30:50Z</time></trkpt><trkpt lat="46.4945525955" lon="12.0466165803"><ele>2540.90</ele><time>2013-07-21T12:31:03Z</time></trkpt><trkpt lat="46.4945622347" lon="12.0466155745"><ele>2542.82</ele><time>2013-07-21T12:31:15Z</time></trkpt><trkpt lat="46.4945896436" lon="12.0466116350"><ele>2544.75</ele><time>2013-07-21T12:31:26Z</time></trkpt><trkpt lat="46.4946079161" lon="12.0465757605"><ele>2545.71</ele><time>2013-07-21T12:31:37Z</time></trkpt><trkpt lat="46.4946183097" lon="12.0465633553"><ele>2546.19</ele><time>2013-07-21T12:31:49Z</time></trkpt><trkpt lat="46.4946366660" lon="12.0465544704"><ele>2547.63</ele><time>2013-07-21T12:31:56Z</time></trkpt><trkpt lat="46.4946366660" lon="12.0465544704"><ele>2548.59</ele><time>2013-07-21T12:32:14Z</time></trkpt><trkpt lat="46.4946385100" lon="12.0465560630"><ele>2549.55</ele><time>2013-07-21T12:32:29Z</time></trkpt><trkpt lat="46.4946504962" lon="12.0465491898"><ele>2550.03</ele><time>2013-07-21T12:32:39Z</time></trkpt><trkpt lat="46.4946601354" lon="12.0465333480"><ele>2551.96</ele><time>2013-07-21T12:32:51Z</time></trkpt><trkpt lat="46.4946585428" lon="12.0465342700"><ele>2552.44</ele><time>2013-07-21T12:33:05Z</time></trkpt><trkpt lat="46.4946767315" lon="12.0465242118"><ele>2554.36</ele><time>2013-07-21T12:33:16Z</time></trkpt><trkpt lat="46.4946767315" lon="12.0465242118"><ele>2554.36</ele><time>2013-07-21T12:33:37Z</time></trkpt><trkpt lat="46.4946767315" lon="12.0465242118"><ele>2555.80</ele><time>2013-07-21T12:33:46Z</time></trkpt><trkpt lat="46.4946789108" lon="12.0465229545"><ele>2556.28</ele><time>2013-07-21T12:33:57Z</time></trkpt><trkpt lat="46.4947022963" lon="12.0464859903"><ele>2558.21</ele><time>2013-07-21T12:34:06Z</time></trkpt><trkpt lat="46.4947294537" lon="12.0464701485"><ele>2559.17</ele><time>2013-07-21T12:34:18Z</time></trkpt><trkpt lat="46.4947833493" lon="12.0464406442"><ele>2560.61</ele><time>2013-07-21T12:34:30Z</time></trkpt><trkpt lat="46.4948075730" lon="12.0464077033"><ele>2561.57</ele><time>2013-07-21T12:34:40Z</time></trkpt><trkpt lat="46.4948519971" lon="12.0463285781"><ele>2562.53</ele><time>2013-07-21T12:34:51Z</time></trkpt><trkpt lat="46.4949074853" lon="12.0462932065"><ele>2563.97</ele><time>2013-07-21T12:35:03Z</time></trkpt><trkpt lat="46.4949158672" lon="12.0462937094"><ele>2564.45</ele><time>2013-07-21T12:35:14Z</time></trkpt><trkpt lat="46.4949380793" lon="12.0462706592"><ele>2565.90</ele><time>2013-07-21T12:35:21Z</time></trkpt><trkpt lat="46.4949458744" lon="12.0462232176"><ele>2566.86</ele><time>2013-07-21T12:35:30Z</time></trkpt><trkpt lat="46.4949910529" lon="12.0461365487"><ele>2567.82</ele><time>2013-07-21T12:35:40Z</time></trkpt><trkpt lat="46.4950311184" lon="12.0460483711"><ele>2569.26</ele><time>2013-07-21T12:35:52Z</time></trkpt><trkpt lat="46.4950599521" lon="12.0459815674"><ele>2569.74</ele><time>2013-07-21T12:36:02Z</time></trkpt><trkpt lat="46.4950903784" lon="12.0459197927"><ele>2570.70</ele><time>2013-07-21T12:36:15Z</time></trkpt><trkpt lat="46.4951149374" lon="12.0458549168"><ele>2572.14</ele><time>2013-07-21T12:36:26Z</time></trkpt><trkpt lat="46.4951325394" lon="12.0458241552"><ele>2572.14</ele><time>2013-07-21T12:36:36Z</time></trkpt><trkpt lat="46.4951420948" lon="12.0458438527"><ele>2571.66</ele><time>2013-07-21T12:36:53Z</time></trkpt><trkpt lat="46.4951420948" lon="12.0458438527"><ele>2571.66</ele><time>2013-07-21T12:37:13Z</time></trkpt><trkpt lat="46.4951408375" lon="12.0458437689"><ele>2572.14</ele><time>2013-07-21T12:37:32Z</time></trkpt><trkpt lat="46.4951408375" lon="12.0458437689"><ele>2571.18</ele><time>2013-07-21T12:37:50Z</time></trkpt><trkpt lat="46.4951415919" lon="12.0458430145"><ele>2571.66</ele><time>2013-07-21T12:38:12Z</time></trkpt><trkpt lat="46.4951415919" lon="12.0458430145"><ele>2571.66</ele><time>2013-07-21T12:38:39Z</time></trkpt><trkpt lat="46.4951449446" lon="12.0458409190"><ele>2572.14</ele><time>2013-07-21T12:39:07Z</time></trkpt><trkpt lat="46.4951466210" lon="12.0458408352"><ele>2572.63</ele><time>2013-07-21T12:39:30Z</time></trkpt><trkpt lat="46.4951466210" lon="12.0458408352"><ele>2572.14</ele><time>2013-07-21T12:39:55Z</time></trkpt><trkpt lat="46.4951477107" lon="12.0458399132"><ele>2571.66</ele><time>2013-07-21T12:40:22Z</time></trkpt><trkpt lat="46.4951511472" lon="12.0458370633"><ele>2572.14</ele><time>2013-07-21T12:40:49Z</time></trkpt><trkpt lat="46.4951511472" lon="12.0458370633"><ele>2572.14</ele><time>2013-07-21T12:41:12Z</time></trkpt><trkpt lat="46.4951515663" lon="12.0458374824"><ele>2572.14</ele><time>2013-07-21T12:41:34Z</time></trkpt><trkpt lat="46.4951515663" lon="12.0458374824"><ele>2571.66</ele><time>2013-07-21T12:41:56Z</time></trkpt><trkpt lat="46.4951539133" lon="12.0458365604"><ele>2573.11</ele><time>2013-07-21T12:42:19Z</time></trkpt><trkpt lat="46.4951539133" lon="12.0458365604"><ele>2572.14</ele><time>2013-07-21T12:42:43Z</time></trkpt><trkpt lat="46.4951548353" lon="12.0458368119"><ele>2572.14</ele><time>2013-07-21T12:43:10Z</time></trkpt><trkpt lat="46.4951545000" lon="12.0458384883"><ele>2572.14</ele><time>2013-07-21T12:43:33Z</time></trkpt><trkpt lat="46.4951545000" lon="12.0458384883"><ele>2572.14</ele><time>2013-07-21T12:43:58Z</time></trkpt><trkpt lat="46.4951565955" lon="12.0458388235"><ele>2572.63</ele><time>2013-07-21T12:44:22Z</time></trkpt><trkpt lat="46.4951567631" lon="12.0458395779"><ele>2572.14</ele><time>2013-07-21T12:44:48Z</time></trkpt><trkpt lat="46.4951567631" lon="12.0458395779"><ele>2572.14</ele><time>2013-07-21T12:45:13Z</time></trkpt><trkpt lat="46.4951562602" lon="12.0458407514"><ele>2572.14</ele><time>2013-07-21T12:45:36Z</time></trkpt><trkpt lat="46.4951562602" lon="12.0458407514"><ele>2572.14</ele><time>2013-07-21T12:46:00Z</time></trkpt><trkpt lat="46.4951544162" lon="12.0458420925"><ele>2573.11</ele><time>2013-07-21T12:46:19Z</time></trkpt><trkpt lat="46.4951539971" lon="12.0458437689"><ele>2572.63</ele><time>2013-07-21T12:46:46Z</time></trkpt><trkpt lat="46.4951539971" lon="12.0458437689"><ele>2573.11</ele><time>2013-07-21T12:47:10Z</time></trkpt><trkpt lat="46.4951525722" lon="12.0458461158"><ele>2573.11</ele><time>2013-07-21T12:47:35Z</time></trkpt><trkpt lat="46.4951525722" lon="12.0458461158"><ele>2573.59</ele><time>2013-07-21T12:48:00Z</time></trkpt><trkpt lat="46.4951516502" lon="12.0458467025"><ele>2573.59</ele><time>2013-07-21T12:48:26Z</time></trkpt><trkpt lat="46.4951516502" lon="12.0458461996"><ele>2573.59</ele><time>2013-07-21T12:48:49Z</time></trkpt><trkpt lat="46.4951516502" lon="12.0458461996"><ele>2574.55</ele><time>2013-07-21T12:49:12Z</time></trkpt><trkpt lat="46.4951496385" lon="12.0458436012"><ele>2573.59</ele><time>2013-07-21T12:49:38Z</time></trkpt><trkpt lat="46.4951496385" lon="12.0458436012"><ele>2574.07</ele><time>2013-07-21T12:50:02Z</time></trkpt><trkpt lat="46.4951494709" lon="12.0458438527"><ele>2574.55</ele><time>2013-07-21T12:50:26Z</time></trkpt><trkpt lat="46.4951492194" lon="12.0458436850"><ele>2574.07</ele><time>2013-07-21T12:50:50Z</time></trkpt><trkpt lat="46.4951492194" lon="12.0458436850"><ele>2574.55</ele><time>2013-07-21T12:51:15Z</time></trkpt><trkpt lat="46.4951483812" lon="12.0458446909"><ele>2574.55</ele><time>2013-07-21T12:51:39Z</time></trkpt><trkpt lat="46.4951483812" lon="12.0458446909"><ele>2574.07</ele><time>2013-07-21T12:52:00Z</time></trkpt><trkpt lat="46.4951477107" lon="12.0458455291"><ele>2574.55</ele><time>2013-07-21T12:52:26Z</time></trkpt><trkpt lat="46.4951477107" lon="12.0458445232"><ele>2575.03</ele><time>2013-07-21T12:52:46Z</time></trkpt><trkpt lat="46.4951477107" lon="12.0458445232"><ele>2574.55</ele><time>2013-07-21T12:53:12Z</time></trkpt><trkpt lat="46.4951477945" lon="12.0458428469"><ele>2575.03</ele><time>2013-07-21T12:53:31Z</time></trkpt><trkpt lat="46.4951477945" lon="12.0458428469"><ele>2574.55</ele><time>2013-07-21T12:53:50Z</time></trkpt><trkpt lat="46.4951468725" lon="12.0458442718"><ele>2575.03</ele><time>2013-07-21T12:54:18Z</time></trkpt><trkpt lat="46.4951468725" lon="12.0458442718"><ele>2575.03</ele><time>2013-07-21T12:54:41Z</time></trkpt><trkpt lat="46.4951451961" lon="12.0458449423"><ele>2575.51</ele><time>2013-07-21T12:55:07Z</time></trkpt><trkpt lat="46.4951448608" lon="12.0458462834"><ele>2575.51</ele><time>2013-07-21T12:55:28Z</time></trkpt><trkpt lat="46.4951448608" lon="12.0458462834"><ele>2575.03</ele><time>2013-07-21T12:55:53Z</time></trkpt><trkpt lat="46.4951442741" lon="12.0458462834"><ele>2575.51</ele><time>2013-07-21T12:56:15Z</time></trkpt><trkpt lat="46.4951442741" lon="12.0458462834"><ele>2575.03</ele><time>2013-07-21T12:56:39Z</time></trkpt><trkpt lat="46.4951440226" lon="12.0458462834"><ele>2575.03</ele><time>2013-07-21T12:56:58Z</time></trkpt><trkpt lat="46.4951440226" lon="12.0458462834"><ele>2575.03</ele><time>2013-07-21T12:57:20Z</time></trkpt><trkpt lat="46.4951418433" lon="12.0458436850"><ele>2575.03</ele><time>2013-07-21T12:57:39Z</time></trkpt><trkpt lat="46.4951418433" lon="12.0458436850"><ele>2575.51</ele><time>2013-07-21T12:58:03Z</time></trkpt><trkpt lat="46.4951429330" lon="12.0458420087"><ele>2575.51</ele><time>2013-07-21T12:58:24Z</time></trkpt><trkpt lat="46.4951429330" lon="12.0458420087"><ele>2575.51</ele><time>2013-07-21T12:58:45Z</time></trkpt><trkpt lat="46.4951436035" lon="12.0458430983"><ele>2575.51</ele><time>2013-07-21T12:59:08Z</time></trkpt><trkpt lat="46.4951432683" lon="12.0458405837"><ele>2575.51</ele><time>2013-07-21T12:59:29Z</time></trkpt><trkpt lat="46.4951432683" lon="12.0458405837"><ele>2575.51</ele><time>2013-07-21T12:59:51Z</time></trkpt><trkpt lat="46.4951434359" lon="12.0458407514"><ele>2575.03</ele><time>2013-07-21T13:00:09Z</time></trkpt><trkpt lat="46.4951434359" lon="12.0458407514"><ele>2575.51</ele><time>2013-07-21T13:00:28Z</time></trkpt><trkpt lat="46.4951426815" lon="12.0458424278"><ele>2575.03</ele><time>2013-07-21T13:00:47Z</time></trkpt><trkpt lat="46.4951426815" lon="12.0458424278"><ele>2575.51</ele><time>2013-07-21T13:01:09Z</time></trkpt><trkpt lat="46.4951418433" lon="12.0458443556"><ele>2575.51</ele><time>2013-07-21T13:01:32Z</time></trkpt><trkpt lat="46.4951418433" lon="12.0458443556"><ele>2575.51</ele><time>2013-07-21T13:01:55Z</time></trkpt><trkpt lat="46.4951420948" lon="12.0458441041"><ele>2575.51</ele><time>2013-07-21T13:02:13Z</time></trkpt><trkpt lat="46.4951420948" lon="12.0458441041"><ele>2575.51</ele><time>2013-07-21T13:02:39Z</time></trkpt><trkpt lat="46.4951398317" lon="12.0458435174"><ele>2575.51</ele><time>2013-07-21T13:03:03Z</time></trkpt><trkpt lat="46.4951398317" lon="12.0458435174"><ele>2575.99</ele><time>2013-07-21T13:03:23Z</time></trkpt><trkpt lat="46.4951401670" lon="12.0458456967"><ele>2575.51</ele><time>2013-07-21T13:03:44Z</time></trkpt><trkpt lat="46.4951410890" lon="12.0458441041"><ele>2575.51</ele><time>2013-07-21T13:04:10Z</time></trkpt><trkpt lat="46.4951410890" lon="12.0458441041"><ele>2575.51</ele><time>2013-07-21T13:04:29Z</time></trkpt><trkpt lat="46.4951407537" lon="12.0458439365"><ele>2575.99</ele><time>2013-07-21T13:04:54Z</time></trkpt><trkpt lat="46.4951407537" lon="12.0458439365"><ele>2575.51</ele><time>2013-07-21T13:05:16Z</time></trkpt><trkpt lat="46.4951408375" lon="12.0458458643"><ele>2575.51</ele><time>2013-07-21T13:05:40Z</time></trkpt><trkpt lat="46.4951408375" lon="12.0458458643"><ele>2575.51</ele><time>2013-07-21T13:06:04Z</time></trkpt><trkpt lat="46.4951409213" lon="12.0458463673"><ele>2575.51</ele><time>2013-07-21T13:06:26Z</time></trkpt><trkpt lat="46.4951410890" lon="12.0458468702"><ele>2575.51</ele><time>2013-07-21T13:06:48Z</time></trkpt><trkpt lat="46.4951410890" lon="12.0458468702"><ele>2575.51</ele><time>2013-07-21T13:07:10Z</time></trkpt><trkpt lat="46.4951426815" lon="12.0458472893"><ele>2575.51</ele><time>2013-07-21T13:07:29Z</time></trkpt><trkpt lat="46.4951426815" lon="12.0458472893"><ele>2575.99</ele><time>2013-07-21T13:07:49Z</time></trkpt><trkpt lat="46.4951422624" lon="12.0458469540"><ele>2575.99</ele><time>2013-07-21T13:08:14Z</time></trkpt><trkpt lat="46.4951422624" lon="12.0458469540"><ele>2575.51</ele><time>2013-07-21T13:08:33Z</time></trkpt><trkpt lat="46.4951430168" lon="12.0458472893"><ele>2575.51</ele><time>2013-07-21T13:09:00Z</time></trkpt><trkpt lat="46.4951430168" lon="12.0458472893"><ele>2575.51</ele><time>2013-07-21T13:09:23Z</time></trkpt><trkpt lat="46.4951433521" lon="12.0458473731"><ele>2575.99</ele><time>2013-07-21T13:09:43Z</time></trkpt><trkpt lat="46.4951433521" lon="12.0458473731"><ele>2576.47</ele><time>2013-07-21T13:09:59Z</time></trkpt><trkpt lat="46.4951434359" lon="12.0458468702"><ele>2575.99</ele><time>2013-07-21T13:10:17Z</time></trkpt><trkpt lat="46.4951434359" lon="12.0458468702"><ele>2575.99</ele><time>2013-07-21T13:10:36Z</time></trkpt><trkpt lat="46.4951432683" lon="12.0458461996"><ele>2575.51</ele><time>2013-07-21T13:10:57Z</time></trkpt><trkpt lat="46.4951432683" lon="12.0458461996"><ele>2575.99</ele><time>2013-07-21T13:11:17Z</time></trkpt><trkpt lat="46.4951426815" lon="12.0458456967"><ele>2575.99</ele><time>2013-07-21T13:11:40Z</time></trkpt><trkpt lat="46.4951426815" lon="12.0458456967"><ele>2575.99</ele><time>2013-07-21T13:11:57Z</time></trkpt><trkpt lat="46.4951419272" lon="12.0458447747"><ele>2575.51</ele><time>2013-07-21T13:12:16Z</time></trkpt><trkpt lat="46.4951419272" lon="12.0458447747"><ele>2575.99</ele><time>2013-07-21T13:12:35Z</time></trkpt><trkpt lat="46.4951420948" lon="12.0458438527"><ele>2576.47</ele><time>2013-07-21T13:12:56Z</time></trkpt><trkpt lat="46.4951420948" lon="12.0458438527"><ele>2576.47</ele><time>2013-07-21T13:13:11Z</time></trkpt><trkpt lat="46.4951275103" lon="12.0457976684"><ele>2576.47</ele><time>2013-07-21T13:13:21Z</time></trkpt><trkpt lat="46.4951815736" lon="12.0456068125"><ele>2576.47</ele><time>2013-07-21T13:13:33Z</time></trkpt><trkpt lat="46.4952679910" lon="12.0455086604"><ele>2574.55</ele><time>2013-07-21T13:13:44Z</time></trkpt><trkpt lat="46.4953230601" lon="12.0454667509"><ele>2574.07</ele><time>2013-07-21T13:13:55Z</time></trkpt><trkpt lat="46.4953244012" lon="12.0454670023"><ele>2573.11</ele><time>2013-07-21T13:14:07Z</time></trkpt><trkpt lat="46.4953465294" lon="12.0454788208"><ele>2572.14</ele><time>2013-07-21T13:14:17Z</time></trkpt><trkpt lat="46.4954135008" lon="12.0455025416"><ele>2569.26</ele><time>2013-07-21T13:14:28Z</time></trkpt><trkpt lat="46.4954646304" lon="12.0455405954"><ele>2568.30</ele><time>2013-07-21T13:14:36Z</time></trkpt><trkpt lat="46.4955177717" lon="12.0455420204"><ele>2566.86</ele><time>2013-07-21T13:14:45Z</time></trkpt><trkpt lat="46.4955529757" lon="12.0455269329"><ele>2565.90</ele><time>2013-07-21T13:14:51Z</time></trkpt><trkpt lat="46.4955695719" lon="12.0455555990"><ele>2564.93</ele><time>2013-07-21T13:15:00Z</time></trkpt><trkpt lat="46.4956308436" lon="12.0455382485"><ele>2563.01</ele><time>2013-07-21T13:15:09Z</time></trkpt><trkpt lat="46.4956672210" lon="12.0454799943"><ele>2561.57</ele><time>2013-07-21T13:15:19Z</time></trkpt><trkpt lat="46.4956991561" lon="12.0454368275"><ele>2559.65</ele><time>2013-07-21T13:15:26Z</time></trkpt><trkpt lat="46.4957566559" lon="12.0453730412"><ele>2558.21</ele><time>2013-07-21T13:15:36Z</time></trkpt><trkpt lat="46.4958097972" lon="12.0453007054"><ele>2558.21</ele><time>2013-07-21T13:15:43Z</time></trkpt><trkpt lat="46.4958557300" lon="12.0452319738"><ele>2557.73</ele><time>2013-07-21T13:15:48Z</time></trkpt><trkpt lat="46.4958729129" lon="12.0451724622"><ele>2557.24</ele><time>2013-07-21T13:15:52Z</time></trkpt><trkpt lat="46.4959061053" lon="12.0451172255"><ele>2557.24</ele><time>2013-07-21T13:15:57Z</time></trkpt><trkpt lat="46.4960207697" lon="12.0449920837"><ele>2555.80</ele><time>2013-07-21T13:16:09Z</time></trkpt><trkpt lat="46.4960356057" lon="12.0449660160"><ele>2554.84</ele><time>2013-07-21T13:16:11Z</time></trkpt><trkpt lat="46.4961314946" lon="12.0448755752"><ele>2553.40</ele><time>2013-07-21T13:16:21Z</time></trkpt><trkpt lat="46.4961554669" lon="12.0448306482"><ele>2552.92</ele><time>2013-07-21T13:16:25Z</time></trkpt><trkpt lat="46.4962371904" lon="12.0447790995"><ele>2551.48</ele><time>2013-07-21T13:16:32Z</time></trkpt><trkpt lat="46.4962755796" lon="12.0447563007"><ele>2550.03</ele><time>2013-07-21T13:16:35Z</time></trkpt><trkpt lat="46.4963300619" lon="12.0447304007"><ele>2551.00</ele><time>2013-07-21T13:16:40Z</time></trkpt><trkpt lat="46.4963631704" lon="12.0447019022"><ele>2549.55</ele><time>2013-07-21T13:16:43Z</time></trkpt><trkpt lat="46.4964350872" lon="12.0446668658"><ele>2547.15</ele><time>2013-07-21T13:16:53Z</time></trkpt><trkpt lat="46.4964433853" lon="12.0446704701"><ele>2547.15</ele><time>2013-07-21T13:16:54Z</time></trkpt><trkpt lat="46.4965199959" lon="12.0446822885"><ele>2545.23</ele><time>2013-07-21T13:17:04Z</time></trkpt><trkpt lat="46.4965739753" lon="12.0446453243"><ele>2542.34</ele><time>2013-07-21T13:17:13Z</time></trkpt><trkpt lat="46.4966258593" lon="12.0445780177"><ele>2540.90</ele><time>2013-07-21T13:17:24Z</time></trkpt><trkpt lat="46.4966417011" lon="12.0445351861"><ele>2540.42</ele><time>2013-07-21T13:17:28Z</time></trkpt><trkpt lat="46.4966811799" lon="12.0444829669"><ele>2539.94</ele><time>2013-07-21T13:17:32Z</time></trkpt><trkpt lat="46.4967140369" lon="12.0444745012"><ele>2538.98</ele><time>2013-07-21T13:17:35Z</time></trkpt><trkpt lat="46.4967641607" lon="12.0445154049"><ele>2538.02</ele><time>2013-07-21T13:17:41Z</time></trkpt><trkpt lat="46.4968451299" lon="12.0444853138"><ele>2536.10</ele><time>2013-07-21T13:17:49Z</time></trkpt><trkpt lat="46.4968525060" lon="12.0444570668"><ele>2536.10</ele><time>2013-07-21T13:17:51Z</time></trkpt><trkpt lat="46.4968610555" lon="12.0443800371"><ele>2534.65</ele><time>2013-07-21T13:17:56Z</time></trkpt><trkpt lat="46.4968883805" lon="12.0443398040"><ele>2534.17</ele><time>2013-07-21T13:18:00Z</time></trkpt><trkpt lat="46.4969250094" lon="12.0443107188"><ele>2533.21</ele><time>2013-07-21T13:18:04Z</time></trkpt><trkpt lat="46.4969545137" lon="12.0442638639"><ele>2532.25</ele><time>2013-07-21T13:18:08Z</time></trkpt><trkpt lat="46.4970097505" lon="12.0441791229"><ele>2531.29</ele><time>2013-07-21T13:18:15Z</time></trkpt><trkpt lat="46.4970245864" lon="12.0440606028"><ele>2530.33</ele><time>2013-07-21T13:18:25Z</time></trkpt><trkpt lat="46.4970726985" lon="12.0440336131"><ele>2527.92</ele><time>2013-07-21T13:18:31Z</time></trkpt><trkpt lat="46.4971480519" lon="12.0439596847"><ele>2526.00</ele><time>2013-07-21T13:18:41Z</time></trkpt><trkpt lat="46.4971226547" lon="12.0438972395"><ele>2524.08</ele><time>2013-07-21T13:18:50Z</time></trkpt><trkpt lat="46.4970987663" lon="12.0438795537"><ele>2523.60</ele><time>2013-07-21T13:18:52Z</time></trkpt><trkpt lat="46.4971397538" lon="12.0438031107"><ele>2522.64</ele><time>2013-07-21T13:19:01Z</time></trkpt><trkpt lat="46.4972110838" lon="12.0437513944"><ele>2519.75</ele><time>2013-07-21T13:19:11Z</time></trkpt><trkpt lat="46.4973052964" lon="12.0437745284"><ele>2517.35</ele><time>2013-07-21T13:19:22Z</time></trkpt><trkpt lat="46.4973980840" lon="12.0437531546"><ele>2515.43</ele><time>2013-07-21T13:19:33Z</time></trkpt><trkpt lat="46.4974737726" lon="12.0437420066"><ele>2513.50</ele><time>2013-07-21T13:19:41Z</time></trkpt><trkpt lat="46.4975494612" lon="12.0437527355"><ele>2511.58</ele><time>2013-07-21T13:19:51Z</time></trkpt><trkpt lat="46.4975542389" lon="12.0436999295"><ele>2510.14</ele><time>2013-07-21T13:19:56Z</time></trkpt><trkpt lat="46.4975839108" lon="12.0435874444"><ele>2509.18</ele><time>2013-07-21T13:20:05Z</time></trkpt><trkpt lat="46.4975860063" lon="12.0435514022"><ele>2508.70</ele><time>2013-07-21T13:20:08Z</time></trkpt><trkpt lat="46.4976584259" lon="12.0434806589"><ele>2507.26</ele><time>2013-07-21T13:20:17Z</time></trkpt><trkpt lat="46.4977579191" lon="12.0434010308"><ele>2505.33</ele><time>2013-07-21T13:20:28Z</time></trkpt><trkpt lat="46.4977900218" lon="12.0433783159"><ele>2503.41</ele><time>2013-07-21T13:20:36Z</time></trkpt><trkpt lat="46.4978093002" lon="12.0433689281"><ele>2502.45</ele><time>2013-07-21T13:20:41Z</time></trkpt><trkpt lat="46.4978626929" lon="12.0433373284"><ele>2500.53</ele><time>2013-07-21T13:20:50Z</time></trkpt><trkpt lat="46.4979399741" lon="12.0432737097"><ele>2497.64</ele><time>2013-07-21T13:21:01Z</time></trkpt><trkpt lat="46.4979626052" lon="12.0432346500"><ele>2495.72</ele><time>2013-07-21T13:21:10Z</time></trkpt><trkpt lat="46.4980498608" lon="12.0432164613"><ele>2494.28</ele><time>2013-07-21T13:21:20Z</time></trkpt><trkpt lat="46.4981150720" lon="12.0431719534"><ele>2492.36</ele><time>2013-07-21T13:21:30Z</time></trkpt><trkpt lat="46.4981772657" lon="12.0431321394"><ele>2489.95</ele><time>2013-07-21T13:21:41Z</time></trkpt><trkpt lat="46.4982340112" lon="12.0431167167"><ele>2488.99</ele><time>2013-07-21T13:21:47Z</time></trkpt><trkpt lat="46.4982624259" lon="12.0431634877"><ele>2488.51</ele><time>2013-07-21T13:21:50Z</time></trkpt><trkpt lat="46.4983333368" lon="12.0431753062"><ele>2486.59</ele><time>2013-07-21T13:21:59Z</time></trkpt><trkpt lat="46.4983507711" lon="12.0431784913"><ele>2486.59</ele><time>2013-07-21T13:22:01Z</time></trkpt><trkpt lat="46.4983731508" lon="12.0432346500"><ele>2485.15</ele><time>2013-07-21T13:22:10Z</time></trkpt><trkpt lat="46.4983906690" lon="12.0432286151"><ele>2483.70</ele><time>2013-07-21T13:22:14Z</time></trkpt><trkpt lat="46.4984166529" lon="12.0432059839"><ele>2482.74</ele><time>2013-07-21T13:22:17Z</time></trkpt><trkpt lat="46.4984780084" lon="12.0431939140"><ele>2480.82</ele><time>2013-07-21T13:22:27Z</time></trkpt><trkpt lat="46.4985537808" lon="12.0431165490"><ele>2478.90</ele><time>2013-07-21T13:22:37Z</time></trkpt><trkpt lat="46.4986065030" lon="12.0430214144"><ele>2476.49</ele><time>2013-07-21T13:22:48Z</time></trkpt><trkpt lat="46.4986401983" lon="12.0429582987"><ele>2475.53</ele><time>2013-07-21T13:22:56Z</time></trkpt><trkpt lat="46.4986622427" lon="12.0429226756"><ele>2475.53</ele><time>2013-07-21T13:22:59Z</time></trkpt><trkpt lat="46.4986748155" lon="12.0428936742"><ele>2475.05</ele><time>2013-07-21T13:23:01Z</time></trkpt><trkpt lat="46.4987343270" lon="12.0427801833"><ele>2474.09</ele><time>2013-07-21T13:23:10Z</time></trkpt><trkpt lat="46.4988064952" lon="12.0427943487"><ele>2471.21</ele><time>2013-07-21T13:23:19Z</time></trkpt><trkpt lat="46.4988791663" lon="12.0428131241"><ele>2468.80</ele><time>2013-07-21T13:23:30Z</time></trkpt><trkpt lat="46.4989363309" lon="12.0428047422"><ele>2467.36</ele><time>2013-07-21T13:23:40Z</time></trkpt><trkpt lat="46.4989743009" lon="12.0427790098"><ele>2465.44</ele><time>2013-07-21T13:23:50Z</time></trkpt><trkpt lat="46.4989992790" lon="12.0427680295"><ele>2463.52</ele><time>2013-07-21T13:23:57Z</time></trkpt><trkpt lat="46.4990588743" lon="12.0427694544"><ele>2463.04</ele><time>2013-07-21T13:24:07Z</time></trkpt><trkpt lat="46.4990945812" lon="12.0427583065"><ele>2461.11</ele><time>2013-07-21T13:24:16Z</time></trkpt><trkpt lat="46.4991405979" lon="12.0427629165"><ele>2460.15</ele><time>2013-07-21T13:24:24Z</time></trkpt><trkpt lat="46.4992136881" lon="12.0427242760"><ele>2459.19</ele><time>2013-07-21T13:24:34Z</time></trkpt><trkpt lat="46.4992543403" lon="12.0426484197"><ele>2457.27</ele><time>2013-07-21T13:24:44Z</time></trkpt><trkpt lat="46.4992896281" lon="12.0425717253"><ele>2456.79</ele><time>2013-07-21T13:24:53Z</time></trkpt><trkpt lat="46.4993342198" lon="12.0424678735"><ele>2455.82</ele><time>2013-07-21T13:25:03Z</time></trkpt><trkpt lat="46.4994113334" lon="12.0424285624"><ele>2453.42</ele><time>2013-07-21T13:25:13Z</time></trkpt><trkpt lat="46.4994221460" lon="12.0424192585"><ele>2453.42</ele><time>2013-07-21T13:25:25Z</time></trkpt><trkpt lat="46.4994176198" lon="12.0424132235"><ele>2453.42</ele><time>2013-07-21T13:25:27Z</time></trkpt><trkpt lat="46.4993629698" lon="12.0424086135"><ele>2452.46</ele><time>2013-07-21T13:25:35Z</time></trkpt><trkpt lat="46.4993391652" lon="12.0424040873"><ele>2452.94</ele><time>2013-07-21T13:25:44Z</time></trkpt><trkpt lat="46.4993219823" lon="12.0423891675"><ele>2451.50</ele><time>2013-07-21T13:25:56Z</time></trkpt><trkpt lat="46.4993177913" lon="12.0423670392"><ele>2451.50</ele><time>2013-07-21T13:26:04Z</time></trkpt><trkpt lat="46.4992944058" lon="12.0423451625"><ele>2450.54</ele><time>2013-07-21T13:26:12Z</time></trkpt><trkpt lat="46.4993010275" lon="12.0423241239"><ele>2449.58</ele><time>2013-07-21T13:26:21Z</time></trkpt><trkpt lat="46.4992869459" lon="12.0423141494"><ele>2448.62</ele><time>2013-07-21T13:26:25Z</time></trkpt><trkpt lat="46.4992585313" lon="12.0423134789"><ele>2448.62</ele><time>2013-07-21T13:26:27Z</time></trkpt><trkpt lat="46.4992483053" lon="12.0422888361"><ele>2447.65</ele><time>2013-07-21T13:26:30Z</time></trkpt><trkpt lat="46.4992892090" lon="12.0421953779"><ele>2445.73</ele><time>2013-07-21T13:26:39Z</time></trkpt><trkpt lat="46.4992864430" lon="12.0421859901"><ele>2445.73</ele><time>2013-07-21T13:26:40Z</time></trkpt><trkpt lat="46.4992513228" lon="12.0421507861"><ele>2444.29</ele><time>2013-07-21T13:26:47Z</time></trkpt><trkpt lat="46.4992567711" lon="12.0420958847"><ele>2443.81</ele><time>2013-07-21T13:26:50Z</time></trkpt><trkpt lat="46.4993070625" lon="12.0419973973"><ele>2441.41</ele><time>2013-07-21T13:27:00Z</time></trkpt><trkpt lat="46.4993386623" lon="12.0419505425"><ele>2440.44</ele><time>2013-07-21T13:27:04Z</time></trkpt><trkpt lat="46.4994406700" lon="12.0419274084"><ele>2437.56</ele><time>2013-07-21T13:27:15Z</time></trkpt><trkpt lat="46.4994560927" lon="12.0419269055"><ele>2437.08</ele><time>2013-07-21T13:27:17Z</time></trkpt><trkpt lat="46.4994992595" lon="12.0418941323"><ele>2434.68</ele><time>2013-07-21T13:27:26Z</time></trkpt><trkpt lat="46.4994957391" lon="12.0418766141"><ele>2434.20</ele><time>2013-07-21T13:27:28Z</time></trkpt><trkpt lat="46.4994735271" lon="12.0418249816"><ele>2433.71</ele><time>2013-07-21T13:27:34Z</time></trkpt><trkpt lat="46.4994715154" lon="12.0417949744"><ele>2433.23</ele><time>2013-07-21T13:27:36Z</time></trkpt><trkpt lat="46.4994443581" lon="12.0417466946"><ele>2433.23</ele><time>2013-07-21T13:27:40Z</time></trkpt><trkpt lat="46.4994465373" lon="12.0416690782"><ele>2432.75</ele><time>2013-07-21T13:27:44Z</time></trkpt><trkpt lat="46.4994063880" lon="12.0415658969"><ele>2431.31</ele><time>2013-07-21T13:27:51Z</time></trkpt><trkpt lat="46.4993797336" lon="12.0414902084"><ele>2429.87</ele><time>2013-07-21T13:27:56Z</time></trkpt><trkpt lat="46.4993726090" lon="12.0413436089"><ele>2428.43</ele><time>2013-07-21T13:28:05Z</time></trkpt><trkpt lat="46.4994604513" lon="12.0411673374"><ele>2426.02</ele><time>2013-07-21T13:28:17Z</time></trkpt><trkpt lat="46.4994875249" lon="12.0410014596"><ele>2424.10</ele><time>2013-07-21T13:28:27Z</time></trkpt><trkpt lat="46.4994943980" lon="12.0409138687"><ele>2423.14</ele><time>2013-07-21T13:28:37Z</time></trkpt><trkpt lat="46.4994943980" lon="12.0409138687"><ele>2423.62</ele><time>2013-07-21T13:28:56Z</time></trkpt><trkpt lat="46.4994866867" lon="12.0408672653"><ele>2412.57</ele><time>2013-07-21T13:29:04Z</time></trkpt><trkpt lat="46.4994886145" lon="12.0408499986"><ele>2423.62</ele><time>2013-07-21T13:29:05Z</time></trkpt><trkpt lat="46.4994924702" lon="12.0408369228"><ele>2422.18</ele><time>2013-07-21T13:29:12Z</time></trkpt><trkpt lat="46.4994944818" lon="12.0408336539"><ele>2422.66</ele><time>2013-07-21T13:29:28Z</time></trkpt><trkpt lat="46.4994944818" lon="12.0408336539"><ele>2422.18</ele><time>2013-07-21T13:29:48Z</time></trkpt><trkpt lat="46.4994938113" lon="12.0408349950"><ele>2422.18</ele><time>2013-07-21T13:30:08Z</time></trkpt><trkpt lat="46.4995028637" lon="12.0408350788"><ele>2422.66</ele><time>2013-07-21T13:30:18Z</time></trkpt><trkpt lat="46.4994764607" lon="12.0408579614"><ele>2422.18</ele><time>2013-07-21T13:30:28Z</time></trkpt><trkpt lat="46.4994764607" lon="12.0408579614"><ele>2422.18</ele><time>2013-07-21T13:30:40Z</time></trkpt><trkpt lat="46.4994606189" lon="12.0408849511"><ele>2421.22</ele><time>2013-07-21T13:30:48Z</time></trkpt><trkpt lat="46.4994281810" lon="12.0408982784"><ele>2420.26</ele><time>2013-07-21T13:30:56Z</time></trkpt><trkpt lat="46.4994187094" lon="12.0408776589"><ele>2418.81</ele><time>2013-07-21T13:31:03Z</time></trkpt><trkpt lat="46.4994151890" lon="12.0408084244"><ele>2416.89</ele><time>2013-07-21T13:31:13Z</time></trkpt><trkpt lat="46.4994035382" lon="12.0408144593"><ele>2414.97</ele><time>2013-07-21T13:31:20Z</time></trkpt><trkpt lat="46.4993891213" lon="12.0408224221"><ele>2413.05</ele><time>2013-07-21T13:31:27Z</time></trkpt><trkpt lat="46.4993814100" lon="12.0408381801"><ele>2411.12</ele><time>2013-07-21T13:31:36Z</time></trkpt><trkpt lat="46.4993419312" lon="12.0408583805"><ele>2409.68</ele><time>2013-07-21T13:31:44Z</time></trkpt><trkpt lat="46.4992913883" lon="12.0409089234"><ele>2408.24</ele><time>2013-07-21T13:31:50Z</time></trkpt><trkpt lat="46.4992099162" lon="12.0409577899"><ele>2406.32</ele><time>2013-07-21T13:31:58Z</time></trkpt><trkpt lat="46.4991769753" lon="12.0409844443"><ele>2405.36</ele><time>2013-07-21T13:32:03Z</time></trkpt><trkpt lat="46.4991124347" lon="12.0410052314"><ele>2402.95</ele><time>2013-07-21T13:32:13Z</time></trkpt><trkpt lat="46.4990830142" lon="12.0410190616"><ele>2401.51</ele><time>2013-07-21T13:32:21Z</time></trkpt><trkpt lat="46.4990770631" lon="12.0410198998"><ele>2400.07</ele><time>2013-07-21T13:32:25Z</time></trkpt><trkpt lat="46.4989994466" lon="12.0410291199"><ele>2397.67</ele><time>2013-07-21T13:32:36Z</time></trkpt><trkpt lat="46.4988996182" lon="12.0410402678"><ele>2395.74</ele><time>2013-07-21T13:32:47Z</time></trkpt><trkpt lat="46.4988806751" lon="12.0410341490"><ele>2393.82</ele><time>2013-07-21T13:32:54Z</time></trkpt><trkpt lat="46.4988328144" lon="12.0410378370"><ele>2391.42</ele><time>2013-07-21T13:33:04Z</time></trkpt><trkpt lat="46.4987952635" lon="12.0410363283"><ele>2389.97</ele><time>2013-07-21T13:33:09Z</time></trkpt><trkpt lat="46.4987505041" lon="12.0410322212"><ele>2388.53</ele><time>2013-07-21T13:33:19Z</time></trkpt><trkpt lat="46.4987505041" lon="12.0410322212"><ele>2387.57</ele><time>2013-07-21T13:33:24Z</time></trkpt><trkpt lat="46.4986184053" lon="12.0410530083"><ele>2385.17</ele><time>2013-07-21T13:33:34Z</time></trkpt><trkpt lat="46.4985812735" lon="12.0410710294"><ele>2385.17</ele><time>2013-07-21T13:33:37Z</time></trkpt><trkpt lat="46.4985297248" lon="12.0410792436"><ele>2383.73</ele><time>2013-07-21T13:33:43Z</time></trkpt><trkpt lat="46.4984756615" lon="12.0410634018"><ele>2383.25</ele><time>2013-07-21T13:33:47Z</time></trkpt><trkpt lat="46.4984428044" lon="12.0410641562"><ele>2382.28</ele><time>2013-07-21T13:33:49Z</time></trkpt><trkpt lat="46.4982692152" lon="12.0411029644"><ele>2379.88</ele><time>2013-07-21T13:34:00Z</time></trkpt><trkpt lat="46.4981845580" lon="12.0410928223"><ele>2377.96</ele><time>2013-07-21T13:34:08Z</time></trkpt><trkpt lat="46.4981377032" lon="12.0410834346"><ele>2377.00</ele><time>2013-07-21T13:34:12Z</time></trkpt><trkpt lat="46.4980873279" lon="12.0410496555"><ele>2376.04</ele><time>2013-07-21T13:34:18Z</time></trkpt><trkpt lat="46.4980493579" lon="12.0410246775"><ele>2376.52</ele><time>2013-07-21T13:34:22Z</time></trkpt><trkpt lat="46.4980262239" lon="12.0410169661"><ele>2375.07</ele><time>2013-07-21T13:34:24Z</time></trkpt><trkpt lat="46.4979579952" lon="12.0409687702"><ele>2373.15</ele><time>2013-07-21T13:34:30Z</time></trkpt><trkpt lat="46.4979237132" lon="12.0409827679"><ele>2373.15</ele><time>2013-07-21T13:34:32Z</time></trkpt><trkpt lat="46.4978087973" lon="12.0409925748"><ele>2371.71</ele><time>2013-07-21T13:34:41Z</time></trkpt><trkpt lat="46.4976709988" lon="12.0410418604"><ele>2370.27</ele><time>2013-07-21T13:34:55Z</time></trkpt><trkpt lat="46.4976653829" lon="12.0410431176"><ele>2369.79</ele><time>2013-07-21T13:34:56Z</time></trkpt><trkpt lat="46.4976110682" lon="12.0410535950"><ele>2368.35</ele><time>2013-07-21T13:35:00Z</time></trkpt><trkpt lat="46.4976004232" lon="12.0410586242"><ele>2368.83</ele><time>2013-07-21T13:35:03Z</time></trkpt><trkpt lat="46.4975675661" lon="12.0410739630"><ele>2366.42</ele><time>2013-07-21T13:35:12Z</time></trkpt><trkpt lat="46.4975327812" lon="12.0410924871"><ele>2365.46</ele><time>2013-07-21T13:35:19Z</time></trkpt><trkpt lat="46.4974969905" lon="12.0410773996"><ele>2364.02</ele><time>2013-07-21T13:35:24Z</time></trkpt><trkpt lat="46.4974499680" lon="12.0410419442"><ele>2362.10</ele><time>2013-07-21T13:35:30Z</time></trkpt><trkpt lat="46.4974201284" lon="12.0410991926"><ele>2359.69</ele><time>2013-07-21T13:35:41Z</time></trkpt><trkpt lat="46.4974132553" lon="12.0411054790"><ele>2359.69</ele><time>2013-07-21T13:35:42Z</time></trkpt><trkpt lat="46.4974392392" lon="12.0411451254"><ele>2358.73</ele><time>2013-07-21T13:35:50Z</time></trkpt><trkpt lat="46.4974692464" lon="12.0411695167"><ele>2357.29</ele><time>2013-07-21T13:35:55Z</time></trkpt><trkpt lat="46.4974721801" lon="12.0411872864"><ele>2355.85</ele><time>2013-07-21T13:36:03Z</time></trkpt><trkpt lat="46.4974957332" lon="12.0412222389"><ele>2352.96</ele><time>2013-07-21T13:36:12Z</time></trkpt><trkpt lat="46.4975019358" lon="12.0412758831"><ele>2352.00</ele><time>2013-07-21T13:36:19Z</time></trkpt><trkpt lat="46.4975187834" lon="12.0413442794"><ele>2349.60</ele><time>2013-07-21T13:36:30Z</time></trkpt><trkpt lat="46.4975509699" lon="12.0413993485"><ele>2347.20</ele><time>2013-07-21T13:36:40Z</time></trkpt><trkpt lat="46.4975440968" lon="12.0414651465"><ele>2346.23</ele><time>2013-07-21T13:36:52Z</time></trkpt><trkpt lat="46.4975440968" lon="12.0414651465"><ele>2345.75</ele><time>2013-07-21T13:36:53Z</time></trkpt><trkpt lat="46.4975449350" lon="12.0414807368"><ele>2344.31</ele><time>2013-07-21T13:37:02Z</time></trkpt><trkpt lat="46.4975238126" lon="12.0414992608"><ele>2342.39</ele><time>2013-07-21T13:37:11Z</time></trkpt><trkpt lat="46.4975218009" lon="12.0414946508"><ele>2341.91</ele><time>2013-07-21T13:37:19Z</time></trkpt><trkpt lat="46.4975145925" lon="12.0414898731"><ele>2341.91</ele><time>2013-07-21T13:37:30Z</time></trkpt><trkpt lat="46.4974999242" lon="12.0414834190"><ele>2340.95</ele><time>2013-07-21T13:37:44Z</time></trkpt><trkpt lat="46.4974682406" lon="12.0415032841"><ele>2339.51</ele><time>2013-07-21T13:37:52Z</time></trkpt><trkpt lat="46.4974404965" lon="12.0415116660"><ele>2338.54</ele><time>2013-07-21T13:38:02Z</time></trkpt><trkpt lat="46.4974163566" lon="12.0415296033"><ele>2338.54</ele><time>2013-07-21T13:38:12Z</time></trkpt><trkpt lat="46.4974059630" lon="12.0415300224"><ele>2337.10</ele><time>2013-07-21T13:38:24Z</time></trkpt><trkpt lat="46.4973886963" lon="12.0415393263"><ele>2335.66</ele><time>2013-07-21T13:38:33Z</time></trkpt><trkpt lat="46.4973856788" lon="12.0415622089"><ele>2335.66</ele><time>2013-07-21T13:38:41Z</time></trkpt><trkpt lat="46.4973786380" lon="12.0415736083"><ele>2334.22</ele><time>2013-07-21T13:38:49Z</time></trkpt><trkpt lat="46.4973728545" lon="12.0415845048"><ele>2334.22</ele><time>2013-07-21T13:38:58Z</time></trkpt><trkpt lat="46.4973692503" lon="12.0415855944"><ele>2333.26</ele><time>2013-07-21T13:39:10Z</time></trkpt><trkpt lat="46.4973782189" lon="12.0416017715"><ele>2332.30</ele><time>2013-07-21T13:39:19Z</time></trkpt><trkpt lat="46.4973664843" lon="12.0415890310"><ele>2331.81</ele><time>2013-07-21T13:39:27Z</time></trkpt><trkpt lat="46.4973874390" lon="12.0415715966"><ele>2330.37</ele><time>2013-07-21T13:39:34Z</time></trkpt><trkpt lat="46.4973978326" lon="12.0415719319"><ele>2329.41</ele><time>2013-07-21T13:39:42Z</time></trkpt><trkpt lat="46.4973816555" lon="12.0415919647"><ele>2329.89</ele><time>2013-07-21T13:39:51Z</time></trkpt><trkpt lat="46.4973744471" lon="12.0415764581"><ele>2327.97</ele><time>2013-07-21T13:40:00Z</time></trkpt><trkpt lat="46.4973684121" lon="12.0415618736"><ele>2327.49</ele><time>2013-07-21T13:40:05Z</time></trkpt><trkpt lat="46.4973541629" lon="12.0415814873"><ele>2325.57</ele><time>2013-07-21T13:40:14Z</time></trkpt><trkpt lat="46.4973676577" lon="12.0415963233"><ele>2324.61</ele><time>2013-07-21T13:40:24Z</time></trkpt><trkpt lat="46.4973454457" lon="12.0416201279"><ele>2323.16</ele><time>2013-07-21T13:40:32Z</time></trkpt><trkpt lat="46.4973370638" lon="12.0416181162"><ele>2321.72</ele><time>2013-07-21T13:40:39Z</time></trkpt><trkpt lat="46.4973135106" lon="12.0416472014"><ele>2319.80</ele><time>2013-07-21T13:40:49Z</time></trkpt><trkpt lat="46.4972397499" lon="12.0416716766"><ele>2318.84</ele><time>2013-07-21T13:40:59Z</time></trkpt><trkpt lat="46.4972417615" lon="12.0416642167"><ele>2317.40</ele><time>2013-07-21T13:41:08Z</time></trkpt><trkpt lat="46.4972394984" lon="12.0416576788"><ele>2316.43</ele><time>2013-07-21T13:41:18Z</time></trkpt><trkpt lat="46.4972550888" lon="12.0416320302"><ele>2315.47</ele><time>2013-07-21T13:41:26Z</time></trkpt><trkpt lat="46.4972679969" lon="12.0416370593"><ele>2314.51</ele><time>2013-07-21T13:41:38Z</time></trkpt><trkpt lat="46.4972547535" lon="12.0416692458"><ele>2313.07</ele><time>2013-07-21T13:41:47Z</time></trkpt><trkpt lat="46.4972299431" lon="12.0417062100"><ele>2313.07</ele><time>2013-07-21T13:41:55Z</time></trkpt><trkpt lat="46.4971958287" lon="12.0417207107"><ele>2313.55</ele><time>2013-07-21T13:41:58Z</time></trkpt><trkpt lat="46.4971065614" lon="12.0417304337"><ele>2310.67</ele><time>2013-07-21T13:42:10Z</time></trkpt><trkpt lat="46.4970624726" lon="12.0417390671"><ele>2308.74</ele><time>2013-07-21T13:42:19Z</time></trkpt><trkpt lat="46.4970278554" lon="12.0417834073"><ele>2306.34</ele><time>2013-07-21T13:42:28Z</time></trkpt><trkpt lat="46.4970040508" lon="12.0418060385"><ele>2305.86</ele><time>2013-07-21T13:42:34Z</time></trkpt><trkpt lat="46.4969887119" lon="12.0418159291"><ele>2305.38</ele><time>2013-07-21T13:42:46Z</time></trkpt><trkpt lat="46.4969643205" lon="12.0418649632"><ele>2303.94</ele><time>2013-07-21T13:42:54Z</time></trkpt><trkpt lat="46.4969132748" lon="12.0419264864"><ele>2302.01</ele><time>2013-07-21T13:43:03Z</time></trkpt><trkpt lat="46.4968829323" lon="12.0419258997"><ele>2300.57</ele><time>2013-07-21T13:43:11Z</time></trkpt><trkpt lat="46.4968381729" lon="12.0419579186"><ele>2299.13</ele><time>2013-07-21T13:43:19Z</time></trkpt><trkpt lat="46.4968245942" lon="12.0419564098"><ele>2297.69</ele><time>2013-07-21T13:43:22Z</time></trkpt><trkpt lat="46.4967677649" lon="12.0419491176"><ele>2296.25</ele><time>2013-07-21T13:43:30Z</time></trkpt><trkpt lat="46.4966526814" lon="12.0418957248"><ele>2293.84</ele><time>2013-07-21T13:43:41Z</time></trkpt><trkpt lat="46.4966115262" lon="12.0419093035"><ele>2292.40</ele><time>2013-07-21T13:43:50Z</time></trkpt><trkpt lat="46.4965814352" lon="12.0419176016"><ele>2290.48</ele><time>2013-07-21T13:44:00Z</time></trkpt><trkpt lat="46.4965313952" lon="12.0418934617"><ele>2289.52</ele><time>2013-07-21T13:44:04Z</time></trkpt><trkpt lat="46.4964768291" lon="12.0418380573"><ele>2287.11</ele><time>2013-07-21T13:44:13Z</time></trkpt><trkpt lat="46.4964619093" lon="12.0418250654"><ele>2286.15</ele><time>2013-07-21T13:44:22Z</time></trkpt><trkpt lat="46.4964541979" lon="12.0418241434"><ele>2285.67</ele><time>2013-07-21T13:44:32Z</time></trkpt><trkpt lat="46.4964163117" lon="12.0418099780"><ele>2284.71</ele><time>2013-07-21T13:44:40Z</time></trkpt><trkpt lat="46.4964114502" lon="12.0417896099"><ele>2283.27</ele><time>2013-07-21T13:44:49Z</time></trkpt><trkpt lat="46.4964204188" lon="12.0417852513"><ele>2282.31</ele><time>2013-07-21T13:44:58Z</time></trkpt><trkpt lat="46.4964113664" lon="12.0417689066"><ele>2280.38</ele><time>2013-07-21T13:45:06Z</time></trkpt><trkpt lat="46.4963934291" lon="12.0417780429"><ele>2278.94</ele><time>2013-07-21T13:45:15Z</time></trkpt><trkpt lat="46.4963628352" lon="12.0417886041"><ele>2276.54</ele><time>2013-07-21T13:45:24Z</time></trkpt><trkpt lat="46.4963267930" lon="12.0418011770"><ele>2274.14</ele><time>2013-07-21T13:45:32Z</time></trkpt><trkpt lat="46.4963093586" lon="12.0418469422"><ele>2273.17</ele><time>2013-07-21T13:45:42Z</time></trkpt><trkpt lat="46.4962832909" lon="12.0418936294"><ele>2272.69</ele><time>2013-07-21T13:45:51Z</time></trkpt><trkpt lat="46.4962640963" lon="12.0419136621"><ele>2272.21</ele><time>2013-07-21T13:45:58Z</time></trkpt><trkpt lat="46.4962054230" lon="12.0419326052"><ele>2270.29</ele><time>2013-07-21T13:46:08Z</time></trkpt><trkpt lat="46.4961497672" lon="12.0419181883"><ele>2269.33</ele><time>2013-07-21T13:46:14Z</time></trkpt><trkpt lat="46.4961174969" lon="12.0419095550"><ele>2268.37</ele><time>2013-07-21T13:46:16Z</time></trkpt><trkpt lat="46.4961107075" lon="12.0419075433"><ele>2267.41</ele><time>2013-07-21T13:46:19Z</time></trkpt><trkpt lat="46.4960554708" lon="12.0419093035"><ele>2266.93</ele><time>2013-07-21T13:46:27Z</time></trkpt><trkpt lat="46.4960345998" lon="12.0419287495"><ele>2266.93</ele><time>2013-07-21T13:46:30Z</time></trkpt><trkpt lat="46.4959812909" lon="12.0419710781"><ele>2266.93</ele><time>2013-07-21T13:46:35Z</time></trkpt><trkpt lat="46.4958540536" lon="12.0419497043"><ele>2265.00</ele><time>2013-07-21T13:46:44Z</time></trkpt><trkpt lat="46.4957693126" lon="12.0419297554"><ele>2262.60</ele><time>2013-07-21T13:46:53Z</time></trkpt><trkpt lat="46.4957159199" lon="12.0418879297"><ele>2261.16</ele><time>2013-07-21T13:47:01Z</time></trkpt><trkpt lat="46.4956679754" lon="12.0419086330"><ele>2258.75</ele><time>2013-07-21T13:47:09Z</time></trkpt><trkpt lat="46.4956267364" lon="12.0419154223"><ele>2257.31</ele><time>2013-07-21T13:47:17Z</time></trkpt><trkpt lat="46.4955945499" lon="12.0419384725"><ele>2256.83</ele><time>2013-07-21T13:47:24Z</time></trkpt><trkpt lat="46.4955854975" lon="12.0419479441"><ele>2258.27</ele><time>2013-07-21T13:47:35Z</time></trkpt><trkpt lat="46.4955652133" lon="12.0419644564"><ele>2260.20</ele><time>2013-07-21T13:47:44Z</time></trkpt><trkpt lat="46.4955155086" lon="12.0420113951"><ele>2261.64</ele><time>2013-07-21T13:47:57Z</time></trkpt><trkpt lat="46.4954962302" lon="12.0420513768"><ele>2263.08</ele><time>2013-07-21T13:48:07Z</time></trkpt><trkpt lat="46.4954803046" lon="12.0420597587"><ele>2264.52</ele><time>2013-07-21T13:48:16Z</time></trkpt><trkpt lat="46.4954814781" lon="12.0420808811"><ele>2265.00</ele><time>2013-07-21T13:48:25Z</time></trkpt><trkpt lat="46.4954082202" lon="12.0421071164"><ele>2266.93</ele><time>2013-07-21T13:48:39Z</time></trkpt><trkpt lat="46.4954099804" lon="12.0421278197"><ele>2268.37</ele><time>2013-07-21T13:48:49Z</time></trkpt><trkpt lat="46.4953926299" lon="12.0421708189"><ele>2269.81</ele><time>2013-07-21T13:48:58Z</time></trkpt><trkpt lat="46.4953802247" lon="12.0422092080"><ele>2270.77</ele><time>2013-07-21T13:49:08Z</time></trkpt><trkpt lat="46.4953772072" lon="12.0422054362"><ele>2270.29</ele><time>2013-07-21T13:49:23Z</time></trkpt><trkpt lat="46.4953651372" lon="12.0422484353"><ele>2272.21</ele><time>2013-07-21T13:49:33Z</time></trkpt><trkpt lat="46.4953500498" lon="12.0422632713"><ele>2273.66</ele><time>2013-07-21T13:49:43Z</time></trkpt><trkpt lat="46.4952860959" lon="12.0423023310"><ele>2275.58</ele><time>2013-07-21T13:49:55Z</time></trkpt><trkpt lat="46.4952644706" lon="12.0423352718"><ele>2277.02</ele><time>2013-07-21T13:50:06Z</time></trkpt><trkpt lat="46.4952572621" lon="12.0423791092"><ele>2277.98</ele><time>2013-07-21T13:50:16Z</time></trkpt><trkpt lat="46.4952450246" lon="12.0424132235"><ele>2279.42</ele><time>2013-07-21T13:50:26Z</time></trkpt><trkpt lat="46.4952471200" lon="12.0424413029"><ele>2280.87</ele><time>2013-07-21T13:50:35Z</time></trkpt><trkpt lat="46.4952265844" lon="12.0425123814"><ele>2281.83</ele><time>2013-07-21T13:50:45Z</time></trkpt><trkpt lat="46.4951809030" lon="12.0425552130"><ele>2282.79</ele><time>2013-07-21T13:50:56Z</time></trkpt><trkpt lat="46.4951161947" lon="12.0426000562"><ele>2283.75</ele><time>2013-07-21T13:51:06Z</time></trkpt><trkpt lat="46.4950205572" lon="12.0426500123"><ele>2284.23</ele><time>2013-07-21T13:51:15Z</time></trkpt><trkpt lat="46.4949613810" lon="12.0426665246"><ele>2284.23</ele><time>2013-07-21T13:51:20Z</time></trkpt><trkpt lat="46.4949218184" lon="12.0427077636"><ele>2284.71</ele><time>2013-07-21T13:51:26Z</time></trkpt><trkpt lat="46.4948832616" lon="12.0427482482"><ele>2285.19</ele><time>2013-07-21T13:51:30Z</time></trkpt><trkpt lat="46.4947601315" lon="12.0427855477"><ele>2284.23</ele><time>2013-07-21T13:51:41Z</time></trkpt><trkpt lat="46.4947097562" lon="12.0428135432"><ele>2284.23</ele><time>2013-07-21T13:51:47Z</time></trkpt><trkpt lat="46.4945900626" lon="12.0428913273"><ele>2283.75</ele><time>2013-07-21T13:51:56Z</time></trkpt><trkpt lat="46.4945801720" lon="12.0428916626"><ele>2283.27</ele><time>2013-07-21T13:51:57Z</time></trkpt><trkpt lat="46.4944724645" lon="12.0430449676"><ele>2281.83</ele><time>2013-07-21T13:52:07Z</time></trkpt><trkpt lat="46.4944612328" lon="12.0430689398"><ele>2282.31</ele><time>2013-07-21T13:52:09Z</time></trkpt><trkpt lat="46.4944526833" lon="12.0431013778"><ele>2282.79</ele><time>2013-07-21T13:52:11Z</time></trkpt><trkpt lat="46.4944072533" lon="12.0431856159"><ele>2282.31</ele><time>2013-07-21T13:52:20Z</time></trkpt><trkpt lat="46.4943728875" lon="12.0432767272"><ele>2279.90</ele><time>2013-07-21T13:52:28Z</time></trkpt><trkpt lat="46.4943035692" lon="12.0433571097"><ele>2278.46</ele><time>2013-07-21T13:52:38Z</time></trkpt><trkpt lat="46.4942833688" lon="12.0433744602"><ele>2277.50</ele><time>2013-07-21T13:52:41Z</time></trkpt><trkpt lat="46.4942612406" lon="12.0433952473"><ele>2277.98</ele><time>2013-07-21T13:52:43Z</time></trkpt><trkpt lat="46.4942109492" lon="12.0434583630"><ele>2279.42</ele><time>2013-07-21T13:52:52Z</time></trkpt><trkpt lat="46.4942036569" lon="12.0434990991"><ele>2279.42</ele><time>2013-07-21T13:52:55Z</time></trkpt><trkpt lat="46.4941653516" lon="12.0435280167"><ele>2279.42</ele><time>2013-07-21T13:52:58Z</time></trkpt><trkpt lat="46.4941314049" lon="12.0435328782"><ele>2279.90</ele><time>2013-07-21T13:53:00Z</time></trkpt><trkpt lat="46.4940552972" lon="12.0435513183"><ele>2279.42</ele><time>2013-07-21T13:53:08Z</time></trkpt><trkpt lat="46.4939382859" lon="12.0435426850"><ele>2278.94</ele><time>2013-07-21T13:53:17Z</time></trkpt><trkpt lat="46.4938233700" lon="12.0435438585"><ele>2279.90</ele><time>2013-07-21T13:53:27Z</time></trkpt><trkpt lat="46.4937765151" lon="12.0435362309"><ele>2280.38</ele><time>2013-07-21T13:53:29Z</time></trkpt><trkpt lat="46.4936297480" lon="12.0435724407"><ele>2280.87</ele><time>2013-07-21T13:53:40Z</time></trkpt><trkpt lat="46.4935915265" lon="12.0435937308"><ele>2279.90</ele><time>2013-07-21T13:53:44Z</time></trkpt><trkpt lat="46.4935206156" lon="12.0436066389"><ele>2279.90</ele><time>2013-07-21T13:53:49Z</time></trkpt><trkpt lat="46.4934834000" lon="12.0436438546"><ele>2279.42</ele><time>2013-07-21T13:53:53Z</time></trkpt><trkpt lat="46.4934564102" lon="12.0436728559"><ele>2278.46</ele><time>2013-07-21T13:53:56Z</time></trkpt><trkpt lat="46.4934066217" lon="12.0436838362"><ele>2278.46</ele><time>2013-07-21T13:53:59Z</time></trkpt><trkpt lat="46.4933772013" lon="12.0437076408"><ele>2278.46</ele><time>2013-07-21T13:54:02Z</time></trkpt><trkpt lat="46.4933100622" lon="12.0437655598"><ele>2279.42</ele><time>2013-07-21T13:54:09Z</time></trkpt><trkpt lat="46.4932880178" lon="12.0437704213"><ele>2279.90</ele><time>2013-07-21T13:54:11Z</time></trkpt><trkpt lat="46.4932229742" lon="12.0438095648"><ele>2278.94</ele><time>2013-07-21T13:54:17Z</time></trkpt><trkpt lat="46.4931978285" lon="12.0438059606"><ele>2278.46</ele><time>2013-07-21T13:54:19Z</time></trkpt><trkpt lat="46.4931206312" lon="12.0438394882"><ele>2277.50</ele><time>2013-07-21T13:54:26Z</time></trkpt><trkpt lat="46.4930425119" lon="12.0438592695"><ele>2275.58</ele><time>2013-07-21T13:54:35Z</time></trkpt><trkpt lat="46.4929793961" lon="12.0438684057"><ele>2276.54</ele><time>2013-07-21T13:54:42Z</time></trkpt><trkpt lat="46.4929628838" lon="12.0438715909"><ele>2277.02</ele><time>2013-07-21T13:54:50Z</time></trkpt><trkpt lat="46.4929254167" lon="12.0438888576"><ele>2279.42</ele><time>2013-07-21T13:54:59Z</time></trkpt><trkpt lat="46.4929218125" lon="12.0439025201"><ele>2279.90</ele><time>2013-07-21T13:55:02Z</time></trkpt><trkpt lat="46.4929013606" lon="12.0439749397"><ele>2281.35</ele><time>2013-07-21T13:55:11Z</time></trkpt><trkpt lat="46.4928677492" lon="12.0439870935"><ele>2282.31</ele><time>2013-07-21T13:55:18Z</time></trkpt><trkpt lat="46.4927795716" lon="12.0440433361"><ele>2283.27</ele><time>2013-07-21T13:55:27Z</time></trkpt><trkpt lat="46.4927334711" lon="12.0440698229"><ele>2284.23</ele><time>2013-07-21T13:55:35Z</time></trkpt><trkpt lat="46.4927091636" lon="12.0441087149"><ele>2285.67</ele><time>2013-07-21T13:55:45Z</time></trkpt><trkpt lat="46.4926995244" lon="12.0441169292"><ele>2286.15</ele><time>2013-07-21T13:55:52Z</time></trkpt><trkpt lat="46.4926813357" lon="12.0441266522"><ele>2286.63</ele><time>2013-07-21T13:56:04Z</time></trkpt><trkpt lat="46.4926307928" lon="12.0441571623"><ele>2287.59</ele><time>2013-07-21T13:56:14Z</time></trkpt><trkpt lat="46.4925975166" lon="12.0441457629"><ele>2287.59</ele><time>2013-07-21T13:56:23Z</time></trkpt><trkpt lat="46.4925136976" lon="12.0441269875"><ele>2287.59</ele><time>2013-07-21T13:56:32Z</time></trkpt><trkpt lat="46.4924073312" lon="12.0441542286"><ele>2288.56</ele><time>2013-07-21T13:56:41Z</time></trkpt><trkpt lat="46.4923922438" lon="12.0441661309"><ele>2288.08</ele><time>2013-07-21T13:56:42Z</time></trkpt><trkpt lat="46.4922822732" lon="12.0442116447"><ele>2288.08</ele><time>2013-07-21T13:56:49Z</time></trkpt><trkpt lat="46.4922797587" lon="12.0442216191"><ele>2288.56</ele><time>2013-07-21T13:56:50Z</time></trkpt><trkpt lat="46.4922282938" lon="12.0442494471"><ele>2287.59</ele><time>2013-07-21T13:56:58Z</time></trkpt><trkpt lat="46.4921904076" lon="12.0442703180"><ele>2288.56</ele><time>2013-07-21T13:57:06Z</time></trkpt><trkpt lat="46.4921522699" lon="12.0442772750"><ele>2289.52</ele><time>2013-07-21T13:57:10Z</time></trkpt><trkpt lat="46.4920626674" lon="12.0442568231"><ele>2288.56</ele><time>2013-07-21T13:57:16Z</time></trkpt><trkpt lat="46.4920590632" lon="12.0442589186"><ele>2288.56</ele><time>2013-07-21T13:57:17Z</time></trkpt><trkpt lat="46.4919464942" lon="12.0442024246"><ele>2288.08</ele><time>2013-07-21T13:57:24Z</time></trkpt><trkpt lat="46.4919253718" lon="12.0442408975"><ele>2289.04</ele><time>2013-07-21T13:57:30Z</time></trkpt><trkpt lat="46.4919120446" lon="12.0442760177"><ele>2289.52</ele><time>2013-07-21T13:57:35Z</time></trkpt><trkpt lat="46.4919303171" lon="12.0443319250"><ele>2290.96</ele><time>2013-07-21T13:57:44Z</time></trkpt><trkpt lat="46.4919233602" lon="12.0444045123"><ele>2289.52</ele><time>2013-07-21T13:57:53Z</time></trkpt><trkpt lat="46.4919118769" lon="12.0444932766"><ele>2289.04</ele><time>2013-07-21T13:58:00Z</time></trkpt><trkpt lat="46.4918895811" lon="12.0446070191"><ele>2288.08</ele><time>2013-07-21T13:58:06Z</time></trkpt><trkpt lat="46.4918806124" lon="12.0446213521"><ele>2287.59</ele><time>2013-07-21T13:58:07Z</time></trkpt><trkpt lat="46.4918677043" lon="12.0447645988"><ele>2287.59</ele><time>2013-07-21T13:58:16Z</time></trkpt><trkpt lat="46.4918650221" lon="12.0447927620"><ele>2287.59</ele><time>2013-07-21T13:58:19Z</time></trkpt><trkpt lat="46.4918772597" lon="12.0448206738"><ele>2288.08</ele><time>2013-07-21T13:58:22Z</time></trkpt><trkpt lat="46.4918731526" lon="12.0449185744"><ele>2289.04</ele><time>2013-07-21T13:58:31Z</time></trkpt><trkpt lat="46.4918638486" lon="12.0450045727"><ele>2290.48</ele><time>2013-07-21T13:58:40Z</time></trkpt><trkpt lat="46.4918681234" lon="12.0450847875"><ele>2292.88</ele><time>2013-07-21T13:58:49Z</time></trkpt><trkpt lat="46.4918554667" lon="12.0451612305"><ele>2293.36</ele><time>2013-07-21T13:58:58Z</time></trkpt><trkpt lat="46.4918406308" lon="12.0451914053"><ele>2293.84</ele><time>2013-07-21T13:59:02Z</time></trkpt><trkpt lat="46.4917285647" lon="12.0452660043"><ele>2294.32</ele><time>2013-07-21T13:59:11Z</time></trkpt><trkpt lat="46.4917155728" lon="12.0453609712"><ele>2296.25</ele><time>2013-07-21T13:59:21Z</time></trkpt><trkpt lat="46.4916764293" lon="12.0453648269"><ele>2297.21</ele><time>2013-07-21T13:59:32Z</time></trkpt><trkpt lat="46.4916672092" lon="12.0453959238"><ele>2296.73</ele><time>2013-07-21T13:59:51Z</time></trkpt><trkpt lat="46.4916309156" lon="12.0454663318"><ele>2298.17</ele><time>2013-07-21T14:00:00Z</time></trkpt><trkpt lat="46.4915894251" lon="12.0455307886"><ele>2299.13</ele><time>2013-07-21T14:00:08Z</time></trkpt><trkpt lat="46.4915516227" lon="12.0456241630"><ele>2300.57</ele><time>2013-07-21T14:00:17Z</time></trkpt><trkpt lat="46.4915157482" lon="12.0457089040"><ele>2301.05</ele><time>2013-07-21T14:00:24Z</time></trkpt><trkpt lat="46.4914900996" lon="12.0458319504"><ele>2302.49</ele><time>2013-07-21T14:00:34Z</time></trkpt><trkpt lat="46.4914501179" lon="12.0459073875"><ele>2302.01</ele><time>2013-07-21T14:00:42Z</time></trkpt><trkpt lat="46.4914222062" lon="12.0459293481"><ele>2302.98</ele><time>2013-07-21T14:00:45Z</time></trkpt><trkpt lat="46.4913898520" lon="12.0460419171"><ele>2303.94</ele><time>2013-07-21T14:00:54Z</time></trkpt><trkpt lat="46.4913616888" lon="12.0461109839"><ele>2302.98</ele><time>2013-07-21T14:01:00Z</time></trkpt><trkpt lat="46.4913373813" lon="12.0461266581"><ele>2303.46</ele><time>2013-07-21T14:01:03Z</time></trkpt><trkpt lat="46.4912941307" lon="12.0461850800"><ele>2302.98</ele><time>2013-07-21T14:01:10Z</time></trkpt><trkpt lat="46.4912719186" lon="12.0461989101"><ele>2303.46</ele><time>2013-07-21T14:01:12Z</time></trkpt><trkpt lat="46.4912556577" lon="12.0462219603"><ele>2303.46</ele><time>2013-07-21T14:01:14Z</time></trkpt><trkpt lat="46.4912285004" lon="12.0462780353"><ele>2303.46</ele><time>2013-07-21T14:01:18Z</time></trkpt><trkpt lat="46.4911901113" lon="12.0463162567"><ele>2304.42</ele><time>2013-07-21T14:01:22Z</time></trkpt><trkpt lat="46.4911532309" lon="12.0464055240"><ele>2303.94</ele><time>2013-07-21T14:01:29Z</time></trkpt><trkpt lat="46.4911449328" lon="12.0465389639"><ele>2304.42</ele><time>2013-07-21T14:01:36Z</time></trkpt><trkpt lat="46.4911093097" lon="12.0466358587"><ele>2304.42</ele><time>2013-07-21T14:01:45Z</time></trkpt><trkpt lat="46.4911044482" lon="12.0466522034"><ele>2304.42</ele><time>2013-07-21T14:01:46Z</time></trkpt><trkpt lat="46.4910337888" lon="12.0467207674"><ele>2303.46</ele><time>2013-07-21T14:01:55Z</time></trkpt><trkpt lat="46.4909771271" lon="12.0467871521"><ele>2302.01</ele><time>2013-07-21T14:02:04Z</time></trkpt><trkpt lat="46.4909493830" lon="12.0468375273"><ele>2301.53</ele><time>2013-07-21T14:02:12Z</time></trkpt><trkpt lat="46.4909430128" lon="12.0468468312"><ele>2302.01</ele><time>2013-07-21T14:02:13Z</time></trkpt><trkpt lat="46.4909101557" lon="12.0468805265"><ele>2302.49</ele><time>2013-07-21T14:02:17Z</time></trkpt><trkpt lat="46.4908756223" lon="12.0469187479"><ele>2302.01</ele><time>2013-07-21T14:02:21Z</time></trkpt><trkpt lat="46.4908187930" lon="12.0469572209"><ele>2302.49</ele><time>2013-07-21T14:02:27Z</time></trkpt><trkpt lat="46.4907925576" lon="12.0469671953"><ele>2302.49</ele><time>2013-07-21T14:02:29Z</time></trkpt><trkpt lat="46.4907032065" lon="12.0469946042"><ele>2302.01</ele><time>2013-07-21T14:02:34Z</time></trkpt><trkpt lat="46.4906845149" lon="12.0469920896"><ele>2302.01</ele><time>2013-07-21T14:02:35Z</time></trkpt><trkpt lat="46.4906128496" lon="12.0470746513"><ele>2302.49</ele><time>2013-07-21T14:02:43Z</time></trkpt><trkpt lat="46.4905006159" lon="12.0471854601"><ele>2302.49</ele><time>2013-07-21T14:02:55Z</time></trkpt><trkpt lat="46.4904007036" lon="12.0472227596"><ele>2302.01</ele><time>2013-07-21T14:03:05Z</time></trkpt><trkpt lat="46.4903654996" lon="12.0472420380"><ele>2302.01</ele><time>2013-07-21T14:03:13Z</time></trkpt><trkpt lat="46.4902952593" lon="12.0472139586"><ele>2302.01</ele><time>2013-07-21T14:03:25Z</time></trkpt><trkpt lat="46.4902281202" lon="12.0471946802"><ele>2299.61</ele><time>2013-07-21T14:03:33Z</time></trkpt><trkpt lat="46.4901808463" lon="12.0471616555"><ele>2298.65</ele><time>2013-07-21T14:03:39Z</time></trkpt><trkpt lat="46.4901808463" lon="12.0471616555"><ele>2298.65</ele><time>2013-07-21T14:03:40Z</time></trkpt><trkpt lat="46.4901665971" lon="12.0471464843"><ele>2298.17</ele><time>2013-07-21T14:03:42Z</time></trkpt><trkpt lat="46.4901358355" lon="12.0471429639"><ele>2298.65</ele><time>2013-07-21T14:03:51Z</time></trkpt><trkpt lat="46.4900663495" lon="12.0470712986"><ele>2298.17</ele><time>2013-07-21T14:03:57Z</time></trkpt><trkpt lat="46.4900235180" lon="12.0470558759"><ele>2298.17</ele><time>2013-07-21T14:04:06Z</time></trkpt><trkpt lat="46.4899657667" lon="12.0470771659"><ele>2298.65</ele><time>2013-07-21T14:04:16Z</time></trkpt><trkpt lat="46.4898981247" lon="12.0470965281"><ele>2297.21</ele><time>2013-07-21T14:04:25Z</time></trkpt><trkpt lat="46.4898531977" lon="12.0471089333"><ele>2295.77</ele><time>2013-07-21T14:04:32Z</time></trkpt><trkpt lat="46.4897896629" lon="12.0471930038"><ele>2298.17</ele><time>2013-07-21T14:04:43Z</time></trkpt><trkpt lat="46.4897680376" lon="12.0472258609"><ele>2298.65</ele><time>2013-07-21T14:04:47Z</time></trkpt><trkpt lat="46.4896753337" lon="12.0472863782"><ele>2297.69</ele><time>2013-07-21T14:04:58Z</time></trkpt><trkpt lat="46.4896169957" lon="12.0473459736"><ele>2297.21</ele><time>2013-07-21T14:05:07Z</time></trkpt><trkpt lat="46.4896095358" lon="12.0473542716"><ele>2296.73</ele><time>2013-07-21T14:05:08Z</time></trkpt><trkpt lat="46.4895166643" lon="12.0473975223"><ele>2295.77</ele><time>2013-07-21T14:05:16Z</time></trkpt><trkpt lat="46.4894570690" lon="12.0474352408"><ele>2296.25</ele><time>2013-07-21T14:05:22Z</time></trkpt><trkpt lat="46.4893427398" lon="12.0475338958"><ele>2297.21</ele><time>2013-07-21T14:05:35Z</time></trkpt><trkpt lat="46.4892999083" lon="12.0476387534"><ele>2298.17</ele><time>2013-07-21T14:05:46Z</time></trkpt><trkpt lat="46.4892828092" lon="12.0477471314"><ele>2297.69</ele><time>2013-07-21T14:05:58Z</time></trkpt><trkpt lat="46.4892649557" lon="12.0478239935"><ele>2297.69</ele><time>2013-07-21T14:06:07Z</time></trkpt><trkpt lat="46.4892552327" lon="12.0478438586"><ele>2297.69</ele><time>2013-07-21T14:06:10Z</time></trkpt><trkpt lat="46.4892597590" lon="12.0479004364"><ele>2297.21</ele><time>2013-07-21T14:06:16Z</time></trkpt><trkpt lat="46.4892335236" lon="12.0479804836"><ele>2295.77</ele><time>2013-07-21T14:06:24Z</time></trkpt><trkpt lat="46.4892090484" lon="12.0480971597"><ele>2294.80</ele><time>2013-07-21T14:06:35Z</time></trkpt><trkpt lat="46.4892383013" lon="12.0481724292"><ele>2296.25</ele><time>2013-07-21T14:06:41Z</time></trkpt><trkpt lat="46.4892495330" lon="12.0482359640"><ele>2296.25</ele><time>2013-07-21T14:06:47Z</time></trkpt><trkpt lat="46.4892501198" lon="12.0482659712"><ele>2295.28</ele><time>2013-07-21T14:06:49Z</time></trkpt><trkpt lat="46.4892389718" lon="12.0483546518"><ele>2295.77</ele><time>2013-07-21T14:06:56Z</time></trkpt><trkpt lat="46.4892708231" lon="12.0484150853"><ele>2296.73</ele><time>2013-07-21T14:07:03Z</time></trkpt><trkpt lat="46.4893035125" lon="12.0484607667"><ele>2297.69</ele><time>2013-07-21T14:07:12Z</time></trkpt><trkpt lat="46.4893305860" lon="12.0485290792"><ele>2298.65</ele><time>2013-07-21T14:07:22Z</time></trkpt><trkpt lat="46.4893495291" lon="12.0485932007"><ele>2300.57</ele><time>2013-07-21T14:07:32Z</time></trkpt><trkpt lat="46.4893977251" lon="12.0486688055"><ele>2301.53</ele><time>2013-07-21T14:07:43Z</time></trkpt><trkpt lat="46.4894164167" lon="12.0487472601"><ele>2302.01</ele><time>2013-07-21T14:07:53Z</time></trkpt><trkpt lat="46.4894351084" lon="12.0488286484"><ele>2303.46</ele><time>2013-07-21T14:08:04Z</time></trkpt><trkpt lat="46.4894239604" lon="12.0488838013"><ele>2303.94</ele><time>2013-07-21T14:08:11Z</time></trkpt><trkpt lat="46.4893932827" lon="12.0490077697"><ele>2305.38</ele><time>2013-07-21T14:08:21Z</time></trkpt><trkpt lat="46.4893725794" lon="12.0490840450"><ele>2304.90</ele><time>2013-07-21T14:08:30Z</time></trkpt><trkpt lat="46.4893431589" lon="12.0491509326"><ele>2304.90</ele><time>2013-07-21T14:08:42Z</time></trkpt><trkpt lat="46.4893530495" lon="12.0492756553"><ele>2305.86</ele><time>2013-07-21T14:08:53Z</time></trkpt><trkpt lat="46.4893617667" lon="12.0493639167"><ele>2306.82</ele><time>2013-07-21T14:09:02Z</time></trkpt><trkpt lat="46.4893735852" lon="12.0494462270"><ele>2307.78</ele><time>2013-07-21T14:09:11Z</time></trkpt><trkpt lat="46.4893501159" lon="12.0495350752"><ele>2309.22</ele><time>2013-07-21T14:09:21Z</time></trkpt><trkpt lat="46.4893524628" lon="12.0496316347"><ele>2309.70</ele><time>2013-07-21T14:09:29Z</time></trkpt><trkpt lat="46.4893399738" lon="12.0497412700"><ele>2311.15</ele><time>2013-07-21T14:09:40Z</time></trkpt><trkpt lat="46.4893353637" lon="12.0497488976"><ele>2311.15</ele><time>2013-07-21T14:09:42Z</time></trkpt><trkpt lat="46.4893160015" lon="12.0497778151"><ele>2311.15</ele><time>2013-07-21T14:09:45Z</time></trkpt><trkpt lat="46.4892737567" lon="12.0498849358"><ele>2310.67</ele><time>2013-07-21T14:09:55Z</time></trkpt><trkpt lat="46.4892651234" lon="12.0499696769"><ele>2310.19</ele><time>2013-07-21T14:10:06Z</time></trkpt><trkpt lat="46.4892324340" lon="12.0500740316"><ele>2309.22</ele><time>2013-07-21T14:10:15Z</time></trkpt><trkpt lat="46.4892255608" lon="12.0500954892"><ele>2308.74</ele><time>2013-07-21T14:10:17Z</time></trkpt><trkpt lat="46.4891936257" lon="12.0501653105"><ele>2308.74</ele><time>2013-07-21T14:10:22Z</time></trkpt><trkpt lat="46.4891720004" lon="12.0501865167"><ele>2308.74</ele><time>2013-07-21T14:10:25Z</time></trkpt><trkpt lat="46.4891378861" lon="12.0502541587"><ele>2308.74</ele><time>2013-07-21T14:10:35Z</time></trkpt><trkpt lat="46.4890859183" lon="12.0502731856"><ele>2308.26</ele><time>2013-07-21T14:10:45Z</time></trkpt><trkpt lat="46.4889817312" lon="12.0502962358"><ele>2307.78</ele><time>2013-07-21T14:10:55Z</time></trkpt><trkpt lat="46.4889488742" lon="12.0502971578"><ele>2306.82</ele><time>2013-07-21T14:11:06Z</time></trkpt><trkpt lat="46.4888966549" lon="12.0502510574"><ele>2305.38</ele><time>2013-07-21T14:11:19Z</time></trkpt><trkpt lat="46.4888865128" lon="12.0502433460"><ele>2305.38</ele><time>2013-07-21T14:11:23Z</time></trkpt><trkpt lat="46.4888476208" lon="12.0501870196"><ele>2304.42</ele><time>2013-07-21T14:11:31Z</time></trkpt><trkpt lat="46.4888498001" lon="12.0501963235"><ele>2303.94</ele><time>2013-07-21T14:11:39Z</time></trkpt><trkpt lat="46.4888406638" lon="12.0502059627"><ele>2302.01</ele><time>2013-07-21T14:11:47Z</time></trkpt><trkpt lat="46.4888228942" lon="12.0502267499"><ele>2301.05</ele><time>2013-07-21T14:11:58Z</time></trkpt><trkpt lat="46.4888113271" lon="12.0502994210"><ele>2301.53</ele><time>2013-07-21T14:12:06Z</time></trkpt><trkpt lat="46.4887798112" lon="12.0503086410"><ele>2299.61</ele><time>2013-07-21T14:12:17Z</time></trkpt><trkpt lat="46.4887376502" lon="12.0503355470"><ele>2298.17</ele><time>2013-07-21T14:12:28Z</time></trkpt><trkpt lat="46.4887042902" lon="12.0504270773"><ele>2297.69</ele><time>2013-07-21T14:12:37Z</time></trkpt><trkpt lat="46.4887046255" lon="12.0504431706"><ele>2297.69</ele><time>2013-07-21T14:12:38Z</time></trkpt><trkpt lat="46.4886324573" lon="12.0505014248"><ele>2296.73</ele><time>2013-07-21T14:12:48Z</time></trkpt><trkpt lat="46.4886238240" lon="12.0504963119"><ele>2297.21</ele><time>2013-07-21T14:12:56Z</time></trkpt><trkpt lat="46.4885958284" lon="12.0504573360"><ele>2297.69</ele><time>2013-07-21T14:13:05Z</time></trkpt><trkpt lat="46.4886162803" lon="12.0504785422"><ele>2299.13</ele><time>2013-07-21T14:13:14Z</time></trkpt><trkpt lat="46.4886095747" lon="12.0505541470"><ele>2301.05</ele><time>2013-07-21T14:13:23Z</time></trkpt><trkpt lat="46.4885969181" lon="12.0506458450"><ele>2301.05</ele><time>2013-07-21T14:13:33Z</time></trkpt><trkpt lat="46.4885889553" lon="12.0506906044"><ele>2302.01</ele><time>2013-07-21T14:13:44Z</time></trkpt><trkpt lat="46.4885354787" lon="12.0507698134"><ele>2302.49</ele><time>2013-07-21T14:13:54Z</time></trkpt><trkpt lat="46.4884798229" lon="12.0508283190"><ele>2302.01</ele><time>2013-07-21T14:14:04Z</time></trkpt><trkpt lat="46.4884385001" lon="12.0508501120"><ele>2301.05</ele><time>2013-07-21T14:14:12Z</time></trkpt><trkpt lat="46.4883961715" lon="12.0508658700"><ele>2299.61</ele><time>2013-07-21T14:14:21Z</time></trkpt><trkpt lat="46.4883811679" lon="12.0508893393"><ele>2300.09</ele><time>2013-07-21T14:14:33Z</time></trkpt><trkpt lat="46.4883443713" lon="12.0509550534"><ele>2301.05</ele><time>2013-07-21T14:14:40Z</time></trkpt><trkpt lat="46.4882944990" lon="12.0510530379"><ele>2301.53</ele><time>2013-07-21T14:14:52Z</time></trkpt><trkpt lat="46.4882830158" lon="12.0510687120"><ele>2300.57</ele><time>2013-07-21T14:14:54Z</time></trkpt><trkpt lat="46.4882673416" lon="12.0510894991"><ele>2300.09</ele><time>2013-07-21T14:14:56Z</time></trkpt><trkpt lat="46.4881798346" lon="12.0511957817"><ele>2301.05</ele><time>2013-07-21T14:15:08Z</time></trkpt><trkpt lat="46.4881633222" lon="12.0512189157"><ele>2301.53</ele><time>2013-07-21T14:15:10Z</time></trkpt><trkpt lat="46.4880490769" lon="12.0513354242"><ele>2302.49</ele><time>2013-07-21T14:15:22Z</time></trkpt><trkpt lat="46.4879988693" lon="12.0513674431"><ele>2302.98</ele><time>2013-07-21T14:15:26Z</time></trkpt><trkpt lat="46.4878774155" lon="12.0514153037"><ele>2302.49</ele><time>2013-07-21T14:15:34Z</time></trkpt><trkpt lat="46.4877907466" lon="12.0515165571"><ele>2302.98</ele><time>2013-07-21T14:15:44Z</time></trkpt><trkpt lat="46.4876534510" lon="12.0516359154"><ele>2299.61</ele><time>2013-07-21T14:15:56Z</time></trkpt><trkpt lat="46.4875205979" lon="12.0516860392"><ele>2299.13</ele><time>2013-07-21T14:16:05Z</time></trkpt><trkpt lat="46.4873776864" lon="12.0517679304"><ele>2299.13</ele><time>2013-07-21T14:16:16Z</time></trkpt><trkpt lat="46.4872726612" lon="12.0518691000"><ele>2298.65</ele><time>2013-07-21T14:16:25Z</time></trkpt><trkpt lat="46.4871817175" lon="12.0519536734"><ele>2297.69</ele><time>2013-07-21T14:16:34Z</time></trkpt><trkpt lat="46.4871556498" lon="12.0519809984"><ele>2297.21</ele><time>2013-07-21T14:16:37Z</time></trkpt><trkpt lat="46.4871004131" lon="12.0520215668"><ele>2296.73</ele><time>2013-07-21T14:16:43Z</time></trkpt><trkpt lat="46.4870290831" lon="12.0520661585"><ele>2295.28</ele><time>2013-07-21T14:16:51Z</time></trkpt><trkpt lat="46.4869298413" lon="12.0521537494"><ele>2292.88</ele><time>2013-07-21T14:17:02Z</time></trkpt><trkpt lat="46.4869045280" lon="12.0521377400"><ele>2292.40</ele><time>2013-07-21T14:17:11Z</time></trkpt><trkpt lat="46.4869045280" lon="12.0521377400"><ele>2291.92</ele><time>2013-07-21T14:17:34Z</time></trkpt><trkpt lat="46.4869042765" lon="12.0521477144"><ele>2292.40</ele><time>2013-07-21T14:17:51Z</time></trkpt><trkpt lat="46.4868988283" lon="12.0521468762"><ele>2291.92</ele><time>2013-07-21T14:17:54Z</time></trkpt><trkpt lat="46.4868614450" lon="12.0521597844"><ele>2291.44</ele><time>2013-07-21T14:17:59Z</time></trkpt><trkpt lat="46.4867787994" lon="12.0522498898"><ele>2289.04</ele><time>2013-07-21T14:18:11Z</time></trkpt><trkpt lat="46.4867117442" lon="12.0523273386"><ele>2286.63</ele><time>2013-07-21T14:18:21Z</time></trkpt><trkpt lat="46.4866848383" lon="12.0523891971"><ele>2286.15</ele><time>2013-07-21T14:18:27Z</time></trkpt><trkpt lat="46.4866567589" lon="12.0524073858"><ele>2284.71</ele><time>2013-07-21T14:18:31Z</time></trkpt><trkpt lat="46.4866105746" lon="12.0524415001"><ele>2283.75</ele><time>2013-07-21T14:18:37Z</time></trkpt><trkpt lat="46.4865325391" lon="12.0524854213"><ele>2280.38</ele><time>2013-07-21T14:18:50Z</time></trkpt><trkpt lat="46.4864573535" lon="12.0525512192"><ele>2277.50</ele><time>2013-07-21T14:19:00Z</time></trkpt><trkpt lat="46.4863944054" lon="12.0525955595"><ele>2276.06</ele><time>2013-07-21T14:19:09Z</time></trkpt><trkpt lat="46.4863664098" lon="12.0526036900"><ele>2275.10</ele><time>2013-07-21T14:19:12Z</time></trkpt><trkpt lat="46.4863404259" lon="12.0526251476"><ele>2274.62</ele><time>2013-07-21T14:19:16Z</time></trkpt><trkpt lat="46.4863034617" lon="12.0526290871"><ele>2273.17</ele><time>2013-07-21T14:19:20Z</time></trkpt><trkpt lat="46.4862423576" lon="12.0526504610"><ele>2272.21</ele><time>2013-07-21T14:19:29Z</time></trkpt><trkpt lat="46.4862098359" lon="12.0526619442"><ele>2271.25</ele><time>2013-07-21T14:19:32Z</time></trkpt><trkpt lat="46.4861205686" lon="12.0527128223"><ele>2268.37</ele><time>2013-07-21T14:19:43Z</time></trkpt><trkpt lat="46.4860743005" lon="12.0527484454"><ele>2267.89</ele><time>2013-07-21T14:19:48Z</time></trkpt><trkpt lat="46.4859712869" lon="12.0527582522"><ele>2265.48</ele><time>2013-07-21T14:19:58Z</time></trkpt><trkpt lat="46.4859011304" lon="12.0527908579"><ele>2265.00</ele><time>2013-07-21T14:20:06Z</time></trkpt><trkpt lat="46.4858602267" lon="12.0528172608"><ele>2264.04</ele><time>2013-07-21T14:20:10Z</time></trkpt><trkpt lat="46.4857307263" lon="12.0528906025"><ele>2263.08</ele><time>2013-07-21T14:20:22Z</time></trkpt><trkpt lat="46.4857190754" lon="12.0529016666"><ele>2263.08</ele><time>2013-07-21T14:20:23Z</time></trkpt><trkpt lat="46.4856114518" lon="12.0529849827"><ele>2261.64</ele><time>2013-07-21T14:20:33Z</time></trkpt><trkpt lat="46.4855556283" lon="12.0530436561"><ele>2261.16</ele><time>2013-07-21T14:20:40Z</time></trkpt><trkpt lat="46.4855386969" lon="12.0530766807"><ele>2260.68</ele><time>2013-07-21T14:20:43Z</time></trkpt><trkpt lat="46.4854584821" lon="12.0531579852"><ele>2259.24</ele><time>2013-07-21T14:20:52Z</time></trkpt><trkpt lat="46.4854137227" lon="12.0531886630"><ele>2258.27</ele><time>2013-07-21T14:20:56Z</time></trkpt><trkpt lat="46.4853620902" lon="12.0532298181"><ele>2257.31</ele><time>2013-07-21T14:21:01Z</time></trkpt><trkpt lat="46.4852342661" lon="12.0533063449"><ele>2255.39</ele><time>2013-07-21T14:21:12Z</time></trkpt><trkpt lat="46.4851166680" lon="12.0533675328"><ele>2253.47</ele><time>2013-07-21T14:21:21Z</time></trkpt><trkpt lat="46.4849987347" lon="12.0534214284"><ele>2252.51</ele><time>2013-07-21T14:21:30Z</time></trkpt><trkpt lat="46.4849699009" lon="12.0534204226"><ele>2252.51</ele><time>2013-07-21T14:21:32Z</time></trkpt><trkpt lat="46.4849257283" lon="12.0534495078"><ele>2252.99</ele><time>2013-07-21T14:21:35Z</time></trkpt><trkpt lat="46.4847906958" lon="12.0534506813"><ele>2251.54</ele><time>2013-07-21T14:21:45Z</time></trkpt><trkpt lat="46.4847037755" lon="12.0534783415"><ele>2251.54</ele><time>2013-07-21T14:21:51Z</time></trkpt><trkpt lat="46.4845435135" lon="12.0535407867"><ele>2251.06</ele><time>2013-07-21T14:22:03Z</time></trkpt><trkpt lat="46.4844662324" lon="12.0535448939"><ele>2251.54</ele><time>2013-07-21T14:22:10Z</time></trkpt><trkpt lat="46.4844033681" lon="12.0535455644"><ele>2251.54</ele><time>2013-07-21T14:22:15Z</time></trkpt><trkpt lat="46.4843370672" lon="12.0535341650"><ele>2251.54</ele><time>2013-07-21T14:22:20Z</time></trkpt><trkpt lat="46.4842286892" lon="12.0535436366"><ele>2250.10</ele><time>2013-07-21T14:22:27Z</time></trkpt><trkpt lat="46.4841663279" lon="12.0535362605"><ele>2249.14</ele><time>2013-07-21T14:22:32Z</time></trkpt><trkpt lat="46.4841237478" lon="12.0535487495"><ele>2248.66</ele><time>2013-07-21T14:22:35Z</time></trkpt><trkpt lat="46.4840600453" lon="12.0535617415"><ele>2248.18</ele><time>2013-07-21T14:22:40Z</time></trkpt><trkpt lat="46.4840083290" lon="12.0535609033"><ele>2247.22</ele><time>2013-07-21T14:22:44Z</time></trkpt><trkpt lat="46.4838440437" lon="12.0535913296"><ele>2245.78</ele><time>2013-07-21T14:22:56Z</time></trkpt><trkpt lat="46.4837405272" lon="12.0536222588"><ele>2244.82</ele><time>2013-07-21T14:23:03Z</time></trkpt><trkpt lat="46.4836137090" lon="12.0536256116"><ele>2244.33</ele><time>2013-07-21T14:23:13Z</time></trkpt><trkpt lat="46.4835975319" lon="12.0536265336"><ele>2244.82</ele><time>2013-07-21T14:23:14Z</time></trkpt><trkpt lat="46.4835738111" lon="12.0536270365"><ele>2244.33</ele><time>2013-07-21T14:23:16Z</time></trkpt><trkpt lat="46.4834392816" lon="12.0536140446"><ele>2244.82</ele><time>2013-07-21T14:23:25Z</time></trkpt><trkpt lat="46.4833346754" lon="12.0536259469"><ele>2244.82</ele><time>2013-07-21T14:23:33Z</time></trkpt><trkpt lat="46.4832129702" lon="12.0536320657"><ele>2244.33</ele><time>2013-07-21T14:23:42Z</time></trkpt><trkpt lat="46.4831574820" lon="12.0536319818"><ele>2243.85</ele><time>2013-07-21T14:23:46Z</time></trkpt><trkpt lat="46.4831020776" lon="12.0536431298"><ele>2243.85</ele><time>2013-07-21T14:23:50Z</time></trkpt><trkpt lat="46.4830389619" lon="12.0536432974"><ele>2243.37</ele><time>2013-07-21T14:23:59Z</time></trkpt><trkpt lat="46.4830389619" lon="12.0536432974"><ele>2243.37</ele><time>2013-07-21T14:24:01Z</time></trkpt><trkpt lat="46.4829729125" lon="12.0536686108"><ele>2243.37</ele><time>2013-07-21T14:24:07Z</time></trkpt><trkpt lat="46.4828936197" lon="12.0536779147"><ele>2243.85</ele><time>2013-07-21T14:24:13Z</time></trkpt><trkpt lat="46.4828214515" lon="12.0537000429"><ele>2244.33</ele><time>2013-07-21T14:24:19Z</time></trkpt><trkpt lat="46.4827653766" lon="12.0537009649"><ele>2244.33</ele><time>2013-07-21T14:24:23Z</time></trkpt><trkpt lat="46.4827468526" lon="12.0536883920"><ele>2243.85</ele><time>2013-07-21T14:24:25Z</time></trkpt><trkpt lat="46.4826393966" lon="12.0536892302"><ele>2243.85</ele><time>2013-07-21T14:24:34Z</time></trkpt><trkpt lat="46.4825834054" lon="12.0537006296"><ele>2244.33</ele><time>2013-07-21T14:24:39Z</time></trkpt><trkpt lat="46.4825526439" lon="12.0536910743"><ele>2244.33</ele><time>2013-07-21T14:24:41Z</time></trkpt><trkpt lat="46.4824742731" lon="12.0535157248"><ele>2243.37</ele><time>2013-07-21T14:24:52Z</time></trkpt><trkpt lat="46.4824384823" lon="12.0534568001"><ele>2246.26</ele><time>2013-07-21T14:24:59Z</time></trkpt><trkpt lat="46.4824384823" lon="12.0534568001"><ele>2240.97</ele><time>2013-07-21T14:25:00Z</time></trkpt><trkpt lat="46.4824384823" lon="12.0534568001"><ele>2244.82</ele><time>2013-07-21T14:25:01Z</time></trkpt></trkseg></trk></gpx> 
